Pastebin launched a little side project called VERYVIRAL.com, check it out ;-) Want more features on Pastebin? Sign Up, it's FREE!
Guest

Untitled

By: a guest on Sep 7th, 2010  |  syntax: None  |  size: 81.49 KB  |  views: 42  |  expires: Never
download  |  raw  |  embed  |  report abuse  |  print
Text below is selected. Please press Ctrl+C to copy to your clipboard. (⌘+C on Mac)
  1. 11:03:30 T:3656 M:1411870720  NOTICE: -----------------------------------------------------------------------
  2. 11:03:30 T:3656 M:1411862528  NOTICE: Starting XBMC, Platform: Windows 7, 64-bit (WoW) build 7600. Built on Aug 29 2010 (SVN:33323, compiler 1500)
  3. 11:03:30 T:3656 M:1411862528  NOTICE: Intel(R) Core(TM) i5 CPU         750  @ 2.67GHz
  4. 11:03:30 T:3656 M:1411862528  NOTICE: Desktop Resolution: 1680x1050 32Bit at 60Hz
  5. 11:03:30 T:3656 M:1411862528  NOTICE: Running with administrator rights
  6. 11:03:30 T:3656 M:1411862528  NOTICE: special://xbmc/ is mapped to: C:\Program Files (x86)\XBMC
  7. 11:03:30 T:3656 M:1411862528  NOTICE: special://xbmcbin/ is mapped to: C:\Program Files (x86)\XBMC
  8. 11:03:30 T:3656 M:1411862528  NOTICE: special://masterprofile/ is mapped to: C:\Users\Jared\AppData\Roaming\XBMC\userdata
  9. 11:03:30 T:3656 M:1411862528  NOTICE: special://home/ is mapped to: C:\Users\Jared\AppData\Roaming\XBMC
  10. 11:03:30 T:3656 M:1411862528  NOTICE: special://temp/ is mapped to: C:\Users\Jared\AppData\Roaming\XBMC\cache
  11. 11:03:30 T:3656 M:1411862528  NOTICE: The executable running is: C:\Program Files (x86)\XBMC\XBMC.exe
  12. 11:03:30 T:3656 M:1411862528  NOTICE: Log File is located: C:\Users\Jared\AppData\Roaming\XBMC\xbmc.log
  13. 11:03:30 T:3656 M:1411862528  NOTICE: -----------------------------------------------------------------------
  14. 11:03:30 T:3656 M:1411842048  NOTICE: Setup SDL
  15. 11:03:30 T:3656 M:1410506752  NOTICE: Found screen: SyncMaster 226BW(Digital) on ATI Radeon HD 5800 Series , adapter 0.
  16. 11:03:30 T:3656 M:1410506752  NOTICE: Found screen: Generic PnP Monitor on ATI Radeon HD 5800 Series , adapter 1.
  17. 11:03:30 T:3656 M:1410502656  NOTICE: Primary mode: 1680x1050 @ 60.00 - Full Screen
  18. 11:03:30 T:3656 M:1410502656  NOTICE: Secondary mode: 1920x1080 @ 60.00 - Full Screen #2
  19. 11:03:30 T:3656 M:1408806912  NOTICE: Additional mode: 640x480 @ 60.00 - Full Screen
  20. 11:03:30 T:3656 M:1408806912  NOTICE: Additional mode: 640x480 @ 59.94 - Full Screen
  21. 11:03:30 T:3656 M:1408806912  NOTICE: Additional mode: 640x480 @ 67.00 - Full Screen
  22. 11:03:30 T:3656 M:1408806912  NOTICE: Additional mode: 640x480 @ 72.00 - Full Screen
  23. 11:03:30 T:3656 M:1408806912  NOTICE: Additional mode: 640x480 @ 75.00 - Full Screen
  24. 11:03:30 T:3656 M:1408806912  NOTICE: Additional mode: 720x480 @ 56.00 - Full Screen
  25. 11:03:30 T:3656 M:1408806912  NOTICE: Previous line repeats 2 times.
  26. 11:03:30 T:3656 M:1408806912  NOTICE: Additional mode: 720x480 @ 60.00 - Full Screen
  27. 11:03:30 T:3656 M:1408806912  NOTICE: Previous line repeats 2 times.
  28. 11:03:30 T:3656 M:1408806912  NOTICE: Additional mode: 720x480 @ 72.00 - Full Screen
  29. 11:03:30 T:3656 M:1408806912  NOTICE: Previous line repeats 2 times.
  30. 11:03:30 T:3656 M:1408806912  NOTICE: Additional mode: 720x480 @ 75.00 - Full Screen
  31. 11:03:30 T:3656 M:1408806912  NOTICE: Previous line repeats 2 times.
  32. 11:03:30 T:3656 M:1408806912  NOTICE: Additional mode: 720x576 @ 56.00 - Full Screen
  33. 11:03:30 T:3656 M:1408806912  NOTICE: Previous line repeats 2 times.
  34. 11:03:30 T:3656 M:1408806912  NOTICE: Additional mode: 720x576 @ 60.00 - Full Screen
  35. 11:03:30 T:3656 M:1408806912  NOTICE: Previous line repeats 2 times.
  36. 11:03:30 T:3656 M:1408806912  NOTICE: Additional mode: 720x576 @ 72.00 - Full Screen
  37. 11:03:30 T:3656 M:1408806912  NOTICE: Previous line repeats 2 times.
  38. 11:03:30 T:3656 M:1408806912  NOTICE: Additional mode: 720x576 @ 75.00 - Full Screen
  39. 11:03:30 T:3656 M:1408806912  NOTICE: Previous line repeats 2 times.
  40. 11:03:30 T:3656 M:1408806912  NOTICE: Additional mode: 800x600 @ 56.00 - Full Screen
  41. 11:03:30 T:3656 M:1408806912  NOTICE: Additional mode: 800x600 @ 60.00 - Full Screen
  42. 11:03:30 T:3656 M:1408806912  NOTICE: Additional mode: 800x600 @ 72.00 - Full Screen
  43. 11:03:30 T:3656 M:1408806912  NOTICE: Additional mode: 800x600 @ 75.00 - Full Screen
  44. 11:03:30 T:3656 M:1408806912  NOTICE: Additional mode: 1024x768 @ 60.00 - Full Screen
  45. 11:03:30 T:3656 M:1408806912  NOTICE: Additional mode: 1024x768 @ 70.00 - Full Screen
  46. 11:03:30 T:3656 M:1408806912  NOTICE: Additional mode: 1024x768 @ 75.00 - Full Screen
  47. 11:03:30 T:3656 M:1408806912  NOTICE: Additional mode: 1152x864 @ 75.00 - Full Screen
  48. 11:03:30 T:3656 M:1408806912  NOTICE: Additional mode: 1280x720 @ 60.00 - Full Screen
  49. 11:03:30 T:3656 M:1408806912  NOTICE: Previous line repeats 2 times.
  50. 11:03:30 T:3656 M:1408806912  NOTICE: Additional mode: 1280x720 @ 59.94 - Full Screen
  51. 11:03:30 T:3656 M:1408806912  NOTICE: Additional mode: 1280x768 @ 60.00 - Full Screen
  52. 11:03:30 T:3656 M:1408806912  NOTICE: Previous line repeats 2 times.
  53. 11:03:30 T:3656 M:1408806912  NOTICE: Additional mode: 1280x800 @ 60.00 - Full Screen
  54. 11:03:30 T:3656 M:1408806912  NOTICE: Previous line repeats 2 times.
  55. 11:03:30 T:3656 M:1408806912  NOTICE: Additional mode: 1280x960 @ 60.00 - Full Screen
  56. 11:03:30 T:3656 M:1408806912  NOTICE: Additional mode: 1280x1024 @ 60.00 - Full Screen
  57. 11:03:30 T:3656 M:1408802816  NOTICE: Additional mode: 1280x1024 @ 75.00 - Full Screen
  58. 11:03:30 T:3656 M:1408806912  NOTICE: Additional mode: 1360x768 @ 60.00 - Full Screen
  59. 11:03:30 T:3656 M:1408806912  NOTICE: Previous line repeats 2 times.
  60. 11:03:30 T:3656 M:1408806912  NOTICE: Additional mode: 1400x1050 @ 60.00 - Full Screen
  61. 11:03:30 T:3656 M:1408806912  NOTICE: Previous line repeats 2 times.
  62. 11:03:30 T:3656 M:1408806912  NOTICE: Additional mode: 1440x900 @ 60.00 - Full Screen
  63. 11:03:30 T:3656 M:1408806912  NOTICE: Previous line repeats 2 times.
  64. 11:03:30 T:3656 M:1408806912  NOTICE: Additional mode: 1680x1050 @ 60.00 - Full Screen
  65. 11:03:30 T:3656 M:1408864256  NOTICE: Additional mode: 640x480 @ 60.00 - Full Screen #2
  66. 11:03:30 T:3656 M:1408864256  NOTICE: Additional mode: 640x480 @ 59.94 - Full Screen #2
  67. 11:03:30 T:3656 M:1408864256  NOTICE: Additional mode: 640x480 @ 67.00 - Full Screen #2
  68. 11:03:30 T:3656 M:1408864256  NOTICE: Additional mode: 640x480 @ 72.00 - Full Screen #2
  69. 11:03:30 T:3656 M:1408864256  NOTICE: Additional mode: 640x480 @ 75.00 - Full Screen #2
  70. 11:03:30 T:3656 M:1408864256  NOTICE: Additional mode: 720x480 @ 60.00 - Full Screen #2
  71. 11:03:30 T:3656 M:1408864256  NOTICE: Additional mode: 720x480 @ 59.94 - Full Screen #2
  72. 11:03:30 T:3656 M:1408864256  NOTICE: Additional mode: 720x576 @ 50.00 - Full Screen #2
  73. 11:03:30 T:3656 M:1408864256  NOTICE: Additional mode: 800x600 @ 60.00 - Full Screen #2
  74. 11:03:30 T:3656 M:1408864256  NOTICE: Additional mode: 800x600 @ 72.00 - Full Screen #2
  75. 11:03:30 T:3656 M:1408864256  NOTICE: Additional mode: 800x600 @ 75.00 - Full Screen #2
  76. 11:03:30 T:3656 M:1408864256  NOTICE: Additional mode: 1024x768 @ 60.00 - Full Screen #2
  77. 11:03:30 T:3656 M:1408864256  NOTICE: Additional mode: 1024x768 @ 70.00 - Full Screen #2
  78. 11:03:30 T:3656 M:1408864256  NOTICE: Additional mode: 1024x768 @ 75.00 - Full Screen #2
  79. 11:03:30 T:3656 M:1408864256  NOTICE: Additional mode: 1152x648 @ 50.00 - Full Screen #2
  80. 11:03:30 T:3656 M:1408864256  NOTICE: Additional mode: 1152x648 @ 60.00 - Full Screen #2
  81. 11:03:30 T:3656 M:1408864256  NOTICE: Additional mode: 1152x864 @ 75.00 - Full Screen #2
  82. 11:03:30 T:3656 M:1408864256  NOTICE: Additional mode: 1280x720 @ 50.00 - Full Screen #2
  83. 11:03:30 T:3656 M:1408864256  NOTICE: Additional mode: 1280x720 @ 60.00 - Full Screen #2
  84. 11:03:30 T:3656 M:1408864256  NOTICE: Additional mode: 1280x720 @ 59.94 - Full Screen #2
  85. 11:03:30 T:3656 M:1408860160  NOTICE: Additional mode: 1280x768 @ 60.00 - Full Screen #2
  86. 11:03:30 T:3656 M:1408864256  NOTICE: Previous line repeats 2 times.
  87. 11:03:30 T:3656 M:1408864256  NOTICE: Additional mode: 1280x800 @ 60.00 - Full Screen #2
  88. 11:03:30 T:3656 M:1408864256  NOTICE: Additional mode: 1280x960 @ 60.00 - Full Screen #2
  89. 11:03:30 T:3656 M:1408864256  NOTICE: Additional mode: 1280x1024 @ 60.00 - Full Screen #2
  90. 11:03:30 T:3656 M:1408864256  NOTICE: Additional mode: 1280x1024 @ 75.00 - Full Screen #2
  91. 11:03:30 T:3656 M:1408864256  NOTICE: Additional mode: 1360x768 @ 60.00 - Full Screen #2
  92. 11:03:30 T:3656 M:1408864256  NOTICE: Additional mode: 1400x1050 @ 60.00 - Full Screen #2
  93. 11:03:30 T:3656 M:1408864256  NOTICE: Previous line repeats 2 times.
  94. 11:03:30 T:3656 M:1408864256  NOTICE: Additional mode: 1440x900 @ 60.00 - Full Screen #2
  95. 11:03:30 T:3656 M:1408864256  NOTICE: Additional mode: 1440x900 @ 75.00 - Full Screen #2
  96. 11:03:30 T:3656 M:1408864256  NOTICE: Additional mode: 1600x900 @ 60.00 - Full Screen #2
  97. 11:03:30 T:3656 M:1408864256  NOTICE: Previous line repeats 2 times.
  98. 11:03:30 T:3656 M:1408864256  NOTICE: Additional mode: 1600x1200 @ 60.00 - Full Screen #2
  99. 11:03:30 T:3656 M:1408864256  NOTICE: Additional mode: 1680x1050 @ 60.00 - Full Screen #2
  100. 11:03:30 T:3656 M:1408864256  NOTICE: Additional mode: 1776x1000 @ 24.00 - Full Screen #2
  101. 11:03:30 T:3656 M:1408864256  NOTICE: Additional mode: 1776x1000 @ 25.00 - Full Screen #2
  102. 11:03:30 T:3656 M:1408864256  NOTICE: Additional mode: 1776x1000 @ 30.00 - Full Screen #2
  103. 11:03:30 T:3656 M:1408864256  NOTICE: Additional mode: 1776x1000 @ 50.00 - Full Screen #2
  104. 11:03:31 T:3656 M:1408864256  NOTICE: Additional mode: 1776x1000 @ 25.00i - Full Screen #2
  105. 11:03:31 T:3656 M:1408864256  NOTICE: Additional mode: 1776x1000 @ 30.00i - Full Screen #2
  106. 11:03:31 T:3656 M:1408864256  NOTICE: Additional mode: 1920x1080 @ 24.00 - Full Screen #2
  107. 11:03:31 T:3656 M:1408864256  NOTICE: Additional mode: 1920x1080 @ 23.98 - Full Screen #2
  108. 11:03:31 T:3656 M:1408864256  NOTICE: Additional mode: 1920x1080 @ 25.00 - Full Screen #2
  109. 11:03:31 T:3656 M:1408864256  NOTICE: Additional mode: 1920x1080 @ 30.00 - Full Screen #2
  110. 11:03:31 T:3656 M:1408864256  NOTICE: Additional mode: 1920x1080 @ 29.97 - Full Screen #2
  111. 11:03:31 T:3656 M:1408864256  NOTICE: Additional mode: 1920x1080 @ 50.00 - Full Screen #2
  112. 11:03:31 T:3656 M:1408864256  NOTICE: Additional mode: 1920x1080 @ 60.00 - Full Screen #2
  113. 11:03:31 T:3656 M:1408864256  NOTICE: Additional mode: 1920x1080 @ 59.94 - Full Screen #2
  114. 11:03:31 T:3656 M:1408864256  NOTICE: Additional mode: 1920x1080 @ 25.00i - Full Screen #2
  115. 11:03:31 T:3656 M:1408864256  NOTICE: Additional mode: 1920x1080 @ 30.00i - Full Screen #2
  116. 11:03:31 T:3656 M:1408864256  NOTICE: Additional mode: 1920x1080 @ 29.97i - Full Screen #2
  117. 11:03:31 T:3656 M:1409073152  NOTICE: load settings...
  118. 11:03:31 T:3656 M:1408798720  NOTICE: special://profile/ is mapped to: special://masterprofile/
  119. 11:03:31 T:3656 M:1408798720  NOTICE: loading special://masterprofile/guisettings.xml
  120. 11:03:31 T:3656 M:1408692224  NOTICE: Getting hardware information now...
  121. 11:03:31 T:3656 M:1408692224  NOTICE: Checking resolution 13
  122. 11:03:31 T:3656 M:1408675840  NOTICE: Loading player core factory settings from special://xbmc/system/playercorefactory.xml.
  123. 11:03:31 T:3656 M:1408667648  NOTICE: Loaded playercorefactory configuration
  124. 11:03:31 T:3656 M:1408667648  NOTICE: Loading player core factory settings from special://masterprofile/playercorefactory.xml.
  125. 11:03:31 T:3656 M:1408667648  NOTICE: special://masterprofile/playercorefactory.xml does not exist. Skipping.
  126. 11:03:31 T:3656 M:1408659456  NOTICE: Loaded advancedsettings.xml from special://profile/advancedsettings.xml
  127. 11:03:31 T:3656 M:1408655360  NOTICE: Contents of special://profile/advancedsettings.xml are...
  128.                                             <advancedsettings>
  129.                                               <moviestacking append="no">
  130.                                                 <regexp>(.*?)([ ._-]+\([0-9]\))([ ._-]?.*?)(\.[^.]+)$</regexp>
  131.                                               </moviestacking>
  132.                                             </advancedsettings>
  133. 11:03:31 T:3656 M:1408647168  NOTICE: Getting hardware information now...
  134. 11:03:31 T:3656 M:1408647168  NOTICE: Checking resolution 13
  135. 11:03:31 T:3656 M:1408643072  NOTICE: Default DVD Player: dvdplayer
  136. 11:03:31 T:3656 M:1408643072  NOTICE: Default Video Player: dvdplayer
  137. 11:03:31 T:3656 M:1408643072  NOTICE: Default Audio Player: paplayer
  138. 11:03:31 T:3656 M:1408638976  NOTICE: Loading media sources from special://masterprofile/sources.xml
  139. 11:03:31 T:3656 M:1407512576  NOTICE: Enabled Joystick: Controller (Xbox 360 Wireless Receiver for Windows)
  140. 11:03:31 T:3656 M:1407512576  NOTICE: Details: Total Axis: 5 Total Hats: 1 Total Buttons: 10
  141. 11:03:31 T:3656 M:1402568704  NOTICE: initializing playlistplayer
  142. 11:03:31 T:3656 M:1402568704  NOTICE: DONE initializing playlistplayer
  143. 11:03:31 T:3656 M:1398349824  NOTICE: CApplication::UpdateLibraries - Starting video library startup scan
  144. 11:03:31 T:3656 M:1397854208  NOTICE: initialize done
  145. 11:03:31 T:3656 M:1397854208  NOTICE: Running the application...
  146. 11:03:31 T:3656 M:1397788672  NOTICE: Webserver: Starting...
  147. 11:03:31 T:5940 M:1397366784  NOTICE: VideoInfoScanner: Starting scan ..
  148. 11:03:31 T:3656 M:1396805632  NOTICE: WebServer: Started the webserver
  149. 11:03:31 T:3656 M:1396781056  NOTICE: ES: Starting event server
  150. 11:03:31 T:6376 M:1396658176  NOTICE: ES: Starting UDP Event server on 0.0.0.0:9777
  151. 11:03:31 T:6376 M:1396576256  NOTICE: UDP: Listening on port 9777
  152. 11:03:32 T:5940 M:1392439296  NOTICE: VideoInfoScanner: Finished scan. Scanning for video info took 00:00
  153. 11:03:44 T:3656 M:1389793280  NOTICE: Enabled debug logging due to GUI setting. Level 2.
  154. 11:03:44 T:3656 M:1389789184   DEBUG: Joystick 0 button 1 Down
  155. 11:03:44 T:3656 M:1389760512   DEBUG: Joystick 0 button 1 Up
  156. 11:03:45 T:3656 M:1389899776   DEBUG: SDLKeyboard: scancode: 14, sym: 8, unicode: 8, modifier: 0
  157. 11:03:45 T:3656 M:1389899776   DEBUG: CApplication::OnKey: 61448 pressed, action is PreviousMenu
  158. 11:03:45 T:3656 M:1389764608   DEBUG: CGUIWindowManager::PreviousWindow: Deactivate
  159. 11:03:45 T:3656 M:1389764608   DEBUG: ------ Window Deinit (SettingsCategory.xml) ------
  160. 11:03:45 T:3656 M:1389793280   DEBUG: CGUIWindowManager::PreviousWindow: Activate new
  161. 11:03:45 T:3656 M:1389793280   DEBUG: ------ Window Init (Settings.xml) ------
  162. 11:03:45 T:3656 M:1389793280    INFO: Loading skin file: Settings.xml
  163. 11:03:46 T:3656 M:1388961792   DEBUG: SDLKeyboard: scancode: 14, sym: 8, unicode: 8, modifier: 0
  164. 11:03:46 T:3656 M:1388961792   DEBUG: CApplication::OnKey: 61448 pressed, action is PreviousMenu
  165. 11:03:46 T:3656 M:1388961792   DEBUG: CGUIWindowManager::PreviousWindow: Deactivate
  166. 11:03:46 T:3656 M:1388961792   DEBUG: ------ Window Deinit (Settings.xml) ------
  167. 11:03:46 T:3656 M:1388957696   DEBUG: CGUIWindowManager::PreviousWindow: Activate new
  168. 11:03:46 T:3656 M:1388957696   DEBUG: ------ Window Init (Home.xml) ------
  169. 11:03:46 T:3656 M:1388957696    INFO: Loading skin file: Home.xml
  170. 11:03:46 T:3656 M:1389608960   DEBUG: CApplication::ExecuteXBMCAction : Translating SetFocus(9000)
  171. 11:03:46 T:3656 M:1389608960   DEBUG: CApplication::ExecuteXBMCAction : To SetFocus(9000)
  172. 11:03:47 T:3656 M:1389608960   DEBUG: SDLKeyboard: scancode: 72, sym: 273, unicode: 0, modifier: 0
  173. 11:03:47 T:3656 M:1389608960   DEBUG: CApplication::OnKey: 61478 pressed, action is Up
  174. 11:03:47 T:3656 M:1389608960   DEBUG: Joystick 0 hat 1 Down
  175. 11:03:47 T:3656 M:1385725952   DEBUG: Joystick 0 hat 4294967295 Centered
  176. 11:03:47 T:3656 M:1389096960   DEBUG: SDLKeyboard: scancode: 72, sym: 273, unicode: 0, modifier: 0
  177. 11:03:47 T:3656 M:1389096960   DEBUG: CApplication::OnKey: 61478 pressed, action is Up
  178. 11:03:47 T:3656 M:1389096960   DEBUG: Joystick 0 hat 1 Down
  179. 11:03:47 T:3656 M:1385385984   DEBUG: Joystick 0 hat 4294967295 Centered
  180. 11:03:47 T:6484 M:1384722432   DEBUG: CImageLoader::DoWork - took 113 ms to load special://skin/backgrounds/videos.jpg
  181. 11:03:47 T:3656 M:1388482560   DEBUG: Joystick 0 hat 1 Down
  182. 11:03:47 T:3656 M:1386696704   DEBUG: SDLKeyboard: scancode: 72, sym: 273, unicode: 0, modifier: 0
  183. 11:03:47 T:3656 M:1386700800   DEBUG: CApplication::OnKey: 61478 pressed, action is Up
  184. 11:03:47 T:3656 M:1388482560   DEBUG: Joystick 0 hat 4294967295 Centered
  185. 11:03:48 T:3656 M:1388482560   DEBUG: SDLKeyboard: scancode: 28, sym: 13, unicode: 13, modifier: 0
  186. 11:03:48 T:3656 M:1388482560   DEBUG: CApplication::OnKey: 61453 pressed, action is Select
  187. 11:03:48 T:3656 M:1388482560   DEBUG: CApplication::ExecuteXBMCAction : Translating ActivateWindow(VideoLibrary,MovieTitles,return)
  188. 11:03:48 T:3656 M:1388482560   DEBUG: CApplication::ExecuteXBMCAction : To ActivateWindow(VideoLibrary,MovieTitles,return)
  189. 11:03:48 T:3656 M:1388482560   DEBUG: Activating window ID: 10025
  190. 11:03:48 T:3656 M:1388482560   DEBUG: Checking if window ID 10024 is locked.
  191. 11:03:48 T:3656 M:1388478464   DEBUG: ------ Window Deinit (Home.xml) ------
  192. 11:03:48 T:3656 M:1388240896   DEBUG: ------ Window Init (MyVideoNav.xml) ------
  193. 11:03:48 T:3656 M:1388240896    INFO: Loading skin file: MyVideoNav.xml
  194. 11:03:48 T:3656 M:1386221568   DEBUG: CGUIMediaWindow::GetDirectory (videodb://1/2/)
  195. 11:03:48 T:3656 M:1386221568   DEBUG:   ParentPath = [videodb://1/2/]
  196. 11:03:48 T:3656 M:1386156032   DEBUG: CVideoDatabase::GetSetsNav query: select sets.idSet,sets.strSet,count(1),count(files.playCount) from sets join setlinkmovie on sets.idSet=setlinkmovie.idSet join movie on setlinkmovie.idMovie=movie.idMovie join files on files.idFile=movie.idFile  group by sets.idSet
  197. 11:03:48 T:3656 M:1386151936   DEBUG: CVideoDatabase::GetMoviesByWhere query: select * from movieview where movieview.idMovie NOT in (select idMovie from setlinkmovie)
  198. 11:03:48 T:3656 M:1386053632   DEBUG: Time for actual SQL query = 10
  199. 11:03:48 T:3656 M:1384140800   DEBUG: Time to retrieve movies from dataset = 54
  200. 11:03:48 T:3656 M:1384095744   DEBUG: Saving fileitems [videodb://1/2/]
  201. 11:03:48 T:3656 M:1383333888   DEBUG:   -- items: 182, sort method: 24, ascending: true
  202. 11:03:48 T:5236 M:1383206912   DEBUG: thread start, auto delete: 0
  203. 11:03:48 T:5236 M:1383342080   DEBUG: Thread 5236 terminating
  204. 11:03:49 T:3656 M:1383342080   DEBUG: Joystick 0 hat 1 Down
  205. 11:03:49 T:3656 M:1383342080   DEBUG: SDLKeyboard: scancode: 80, sym: 274, unicode: 0, modifier: 0
  206. 11:03:49 T:3656 M:1383342080   DEBUG: CApplication::OnKey: 61480 pressed, action is Down
  207. 11:03:49 T:3656 M:1379123200   DEBUG: Joystick 0 hat 4294967295 Centered
  208. 11:03:49 T:4388 M:1373831168   DEBUG: CImageLoader::DoWork - took 134 ms to load special://masterprofile/Thumbnails/Video/Fanart/7f7fa3e7.tbn
  209. 11:03:49 T:3656 M:1382322176   DEBUG: SDLKeyboard: scancode: 80, sym: 274, unicode: 0, modifier: 0
  210. 11:03:49 T:3656 M:1382322176   DEBUG: CApplication::OnKey: 61480 pressed, action is Down
  211. 11:03:49 T:3656 M:1382322176   DEBUG: Joystick 0 hat 1 Down
  212. 11:03:49 T:3656 M:1375465472   DEBUG: Joystick 0 hat 4294967295 Centered
  213. 11:03:49 T:6484 M:1372995584   DEBUG: CImageLoader::DoWork - took 118 ms to load special://masterprofile/Thumbnails/Video/Fanart/6a5ac387.tbn
  214. 11:03:49 T:3656 M:1381486592   DEBUG: SDLKeyboard: scancode: 80, sym: 274, unicode: 0, modifier: 0
  215. 11:03:49 T:3656 M:1381486592   DEBUG: CApplication::OnKey: 61480 pressed, action is Down
  216. 11:03:49 T:3656 M:1381486592   DEBUG: Joystick 0 hat 1 Down
  217. 11:03:49 T:3656 M:1367896064   DEBUG: Joystick 0 hat 4294967295 Centered
  218. 11:03:49 T:4388 M:1372475392   DEBUG: CImageLoader::DoWork - took 104 ms to load special://masterprofile/Thumbnails/Video/Fanart/75419c0b.tbn
  219. 11:03:49 T:3656 M:1380982784   DEBUG: SDLKeyboard: scancode: 80, sym: 274, unicode: 0, modifier: 0
  220. 11:03:49 T:3656 M:1380982784   DEBUG: CApplication::OnKey: 61480 pressed, action is Down
  221. 11:03:49 T:3656 M:1380982784   DEBUG: Joystick 0 hat 1 Down
  222. 11:03:50 T:3656 M:1373569024   DEBUG: Joystick 0 hat 4294967295 Centered
  223. 11:03:50 T:6484 M:1372139520   DEBUG: CImageLoader::DoWork - took 130 ms to load special://masterprofile/Thumbnails/Video/Fanart/d3e0344f.tbn
  224. 11:03:50 T:3656 M:1380360192   DEBUG: Joystick 0 hat 1 Down
  225. 11:03:50 T:3656 M:1380360192   DEBUG: SDLKeyboard: scancode: 80, sym: 274, unicode: 0, modifier: 0
  226. 11:03:50 T:3656 M:1380360192   DEBUG: CApplication::OnKey: 61480 pressed, action is Down
  227. 11:03:50 T:3656 M:1377726464   DEBUG: Joystick 0 hat 4294967295 Centered
  228. 11:03:50 T:4388 M:1371525120   DEBUG: CImageLoader::DoWork - took 173 ms to load special://masterprofile/Thumbnails/Video/Fanart/79f93d99.tbn
  229. 11:03:50 T:3656 M:1372016640   DEBUG: SDLKeyboard: scancode: 80, sym: 274, unicode: 0, modifier: 0
  230. 11:03:50 T:3656 M:1372016640   DEBUG: CApplication::OnKey: 61480 pressed, action is Down
  231. 11:03:50 T:3656 M:1372016640   DEBUG: Joystick 0 hat 1 Down
  232. 11:03:50 T:3656 M:1369513984   DEBUG: Joystick 0 hat 4294967295 Centered
  233. 11:03:50 T:3656 M:1374433280   DEBUG: Joystick 0 hat 1 Down
  234. 11:03:50 T:3656 M:1374429184   DEBUG: SDLKeyboard: scancode: 80, sym: 274, unicode: 0, modifier: 0
  235. 11:03:50 T:3656 M:1374429184   DEBUG: CApplication::OnKey: 61480 pressed, action is Down
  236. 11:03:50 T:3656 M:1368711168   DEBUG: Joystick 0 hat 4294967295 Centered
  237. 11:03:50 T:4388 M:1368977408   DEBUG: CImageLoader::DoWork - took 107 ms to load special://masterprofile/Thumbnails/Video/Fanart/c438984a.tbn
  238. 11:03:50 T:3656 M:1377046528   DEBUG: Joystick 0 hat 1 Down
  239. 11:03:50 T:3656 M:1375043584   DEBUG: SDLKeyboard: scancode: 80, sym: 274, unicode: 0, modifier: 0
  240. 11:03:50 T:3656 M:1375031296   DEBUG: CApplication::OnKey: 61480 pressed, action is Down
  241. 11:03:50 T:3656 M:1372721152   DEBUG: Joystick 0 hat 4294967295 Centered
  242. 11:03:50 T:6484 M:1366282240   DEBUG: CImageLoader::DoWork - took 136 ms to load special://masterprofile/Thumbnails/Video/Fanart/f262d595.tbn
  243. 11:03:50 T:3656 M:1375068160   DEBUG: SDLKeyboard: scancode: 80, sym: 274, unicode: 0, modifier: 0
  244. 11:03:50 T:3656 M:1375068160   DEBUG: CApplication::OnKey: 61480 pressed, action is Down
  245. 11:03:50 T:3656 M:1375068160   DEBUG: Joystick 0 hat 1 Down
  246. 11:03:51 T:3656 M:1363689472   DEBUG: Joystick 0 hat 4294967295 Centered
  247. 11:03:51 T:4388 M:1365921792   DEBUG: CImageLoader::DoWork - took 111 ms to load special://masterprofile/Thumbnails/Video/Fanart/f166a3d0.tbn
  248. 11:03:51 T:3656 M:1374351360   DEBUG: SDLKeyboard: scancode: 80, sym: 274, unicode: 0, modifier: 0
  249. 11:03:51 T:3656 M:1374351360   DEBUG: CApplication::OnKey: 61480 pressed, action is Down
  250. 11:03:51 T:3656 M:1374351360   DEBUG: Joystick 0 hat 1 Down
  251. 11:03:51 T:3656 M:1362247680   DEBUG: Joystick 0 hat 4294967295 Centered
  252. 11:03:51 T:6484 M:1364582400   DEBUG: CImageLoader::DoWork - took 130 ms to load special://masterprofile/Thumbnails/Video/Fanart/156beb28.tbn
  253. 11:03:51 T:3656 M:1375248384   DEBUG: SDLKeyboard: scancode: 80, sym: 274, unicode: 0, modifier: 0
  254. 11:03:51 T:3656 M:1375248384   DEBUG: CApplication::OnKey: 61480 pressed, action is Down
  255. 11:03:51 T:3656 M:1375248384   DEBUG: Joystick 0 hat 1 Down
  256. 11:03:51 T:4388 M:1366319104   DEBUG: CImageLoader::DoWork - took 123 ms to load special://masterprofile/Thumbnails/Video/Fanart/c4bb40f1.tbn
  257. 11:03:51 T:3656 M:1366568960   DEBUG: Joystick 0 hat 4294967295 Centered
  258. 11:03:51 T:3656 M:1371742208   DEBUG: SDLKeyboard: scancode: 80, sym: 274, unicode: 0, modifier: 0
  259. 11:03:51 T:3656 M:1371742208   DEBUG: CApplication::OnKey: 61480 pressed, action is Down
  260. 11:03:51 T:3656 M:1371742208   DEBUG: Joystick 0 hat 1 Down
  261. 11:03:51 T:6484 M:1364082688   DEBUG: CImageLoader::DoWork - took 119 ms to load special://masterprofile/Thumbnails/Video/Fanart/8bae5c30.tbn
  262. 11:03:51 T:3656 M:1364332544   DEBUG: Joystick 0 hat 4294967295 Centered
  263. 11:03:52 T:3656 M:1372246016   DEBUG: SDLKeyboard: scancode: 80, sym: 274, unicode: 0, modifier: 0
  264. 11:03:52 T:3656 M:1372246016   DEBUG: CApplication::OnKey: 61480 pressed, action is Down
  265. 11:03:52 T:3656 M:1372246016   DEBUG: Joystick 0 hat 1 Down
  266. 11:03:52 T:3656 M:1364033536   DEBUG: Joystick 0 hat 4294967295 Centered
  267. 11:03:52 T:4388 M:1362415616   DEBUG: CImageLoader::DoWork - took 148 ms to load special://masterprofile/Thumbnails/Video/Fanart/029b161a.tbn
  268. 11:03:52 T:3656 M:1373237248   DEBUG: Joystick 0 hat 1 Down
  269. 11:03:52 T:3656 M:1373237248   DEBUG: SDLKeyboard: scancode: 72, sym: 273, unicode: 0, modifier: 0
  270. 11:03:52 T:3656 M:1373237248   DEBUG: CApplication::OnKey: 61478 pressed, action is Up
  271. 11:03:52 T:3656 M:1373118464   DEBUG: Joystick 0 hat 4294967295 Centered
  272. 11:03:53 T:3656 M:1386123264   DEBUG: Joystick 0 hat 1 Down
  273. 11:03:53 T:3656 M:1386180608   DEBUG: SDLKeyboard: scancode: 80, sym: 274, unicode: 0, modifier: 0
  274. 11:03:53 T:3656 M:1386180608   DEBUG: CApplication::OnKey: 61480 pressed, action is Down
  275. 11:03:53 T:3656 M:1385758720   DEBUG: Joystick 0 hat 4294967295 Centered
  276. 11:03:53 T:3656 M:1385766912   DEBUG: SDLKeyboard: scancode: 80, sym: 274, unicode: 0, modifier: 0
  277. 11:03:53 T:3656 M:1385766912   DEBUG: CApplication::OnKey: 61480 pressed, action is Down
  278. 11:03:53 T:3656 M:1385766912   DEBUG: Joystick 0 hat 1 Down
  279. 11:03:53 T:3656 M:1375932416   DEBUG: Joystick 0 hat 4294967295 Centered
  280. 11:03:53 T:6484 M:1376231424   DEBUG: CImageLoader::DoWork - took 120 ms to load special://masterprofile/Thumbnails/Video/Fanart/e55b50bb.tbn
  281. 11:03:53 T:3656 M:1383501824   DEBUG: SDLKeyboard: scancode: 72, sym: 273, unicode: 0, modifier: 0
  282. 11:03:53 T:3656 M:1383501824   DEBUG: CApplication::OnKey: 61478 pressed, action is Up
  283. 11:03:53 T:3656 M:1383501824   DEBUG: Joystick 0 hat 1 Down
  284. 11:03:54 T:3656 M:1383497728   DEBUG: Joystick 0 hat 4294967295 Centered
  285. 11:03:54 T:3656 M:1383374848   DEBUG: Joystick 0 hat 1 Down
  286. 11:03:54 T:3656 M:1383374848   DEBUG: SDLKeyboard: scancode: 72, sym: 273, unicode: 0, modifier: 0
  287. 11:03:54 T:3656 M:1383374848   DEBUG: CApplication::OnKey: 61478 pressed, action is Up
  288. 11:03:54 T:3656 M:1385537536   DEBUG: Joystick 0 hat 4294967295 Centered
  289. 11:03:54 T:3656 M:1383976960   DEBUG: Joystick 0 button 5 Down
  290. 11:03:55 T:3656 M:1383976960   DEBUG: SDLKeyboard: scancode: 23, sym: 105, unicode: 105, modifier: 0
  291. 11:03:55 T:3656 M:1383976960   DEBUG: CApplication::OnKey: 61513 pressed, action is Info
  292. 11:03:55 T:3656 M:1383960576   DEBUG: CVideoDatabase::GetMovieId (E:\Movies\Avatar\Avatar.mkv), query = select idMovie from movie where idFile=1505
  293. 11:03:55 T:3656 M:1383919616   DEBUG: Previous line repeats 1 times.
  294. 11:03:55 T:3656 M:1383919616   DEBUG: ------ Window Init (DialogVideoInfo.xml) ------
  295. 11:03:55 T:3656 M:1383919616    INFO: Loading skin file: DialogVideoInfo.xml
  296. 11:03:55 T:3656 M:1383727104   DEBUG: Joystick 0 button 5 Up
  297. 11:03:55 T:3656 M:1385103360   DEBUG: Joystick 0 hat 1 Down
  298. 11:03:55 T:3656 M:1385103360   DEBUG: SDLKeyboard: scancode: 77, sym: 275, unicode: 0, modifier: 0
  299. 11:03:55 T:3656 M:1385103360   DEBUG: CApplication::OnKey: 61479 pressed, action is Right
  300. 11:03:55 T:3656 M:1386602496   DEBUG: Joystick 0 hat 4294967295 Centered
  301. 11:03:56 T:3656 M:1386602496   DEBUG: Joystick 0 hat 1 Down
  302. 11:03:56 T:3656 M:1386602496   DEBUG: SDLKeyboard: scancode: 77, sym: 275, unicode: 0, modifier: 0
  303. 11:03:56 T:3656 M:1386602496   DEBUG: CApplication::OnKey: 61479 pressed, action is Right
  304. 11:03:56 T:3656 M:1386602496   DEBUG: Joystick 0 hat 4294967295 Centered
  305. 11:03:56 T:3656 M:1385492480   DEBUG: Joystick 0 button 1 Down
  306. 11:03:56 T:3656 M:1385492480   DEBUG: SDLKeyboard: scancode: 28, sym: 13, unicode: 13, modifier: 0
  307. 11:03:56 T:3656 M:1385492480   DEBUG: CApplication::OnKey: 61453 pressed, action is Select
  308. 11:03:56 T:3656 M:1385480192   DEBUG: Joystick 0 button 1 Up
  309. 11:03:56 T:3656 M:1384951808   DEBUG: ------ Window Deinit (DialogVideoInfo.xml) ------
  310. 11:03:56 T:3656 M:1384943616   DEBUG: VideoInfoScanner: No NFO file found. Using title search for 'E:\Movies\Avatar\Avatar.mkv'
  311. 11:03:56 T:3656 M:1384943616    INFO: Loading skin file: DialogProgress.xml
  312. 11:03:56 T:3656 M:1384939520   DEBUG: ------ Window Init (DialogProgress.xml) ------
  313. 11:03:57 T:424 M:1384402944   DEBUG: thread start, auto delete: 0
  314. 11:03:57 T:424 M:1384378368   DEBUG: CIMDB::InternalFindMovie: Searching for 'avatar' using IMDb scraper (path: 'C:\Users\Jared\AppData\Roaming\XBMC\addons\metadata.imdb.com', content: 'movies', version: '1.0.12')
  315. 11:03:57 T:424 M:1384370176   DEBUG: scraper: CreateSearchUrl returned <url>http://akas.imdb.com/find?s=tt;q=avatar</url>
  316. 11:03:57 T:424 M:1384312832   DEBUG: FileCurl::Open(0018E2C0) http://akas.imdb.com/find?s=tt;q=avatar
  317. 11:03:57 T:424 M:1384308736    INFO: XCURL::DllLibCurlGlobal::easy_aquire - Created session to http://akas.imdb.com
  318. 11:03:59 T:424 M:1383854080   DEBUG: FileCurl::Close(0018E2C0) http://akas.imdb.com/find?s=tt;q=avatar
  319. 11:03:59 T:424 M:1383854080   DEBUG: scraper: GetSearchResults returned <?xml version="1.0" encoding="iso-8859-1" standalone="yes"?><results><entity><title>Avatar</title><year>2009</year><url>http://akas.imdb.com/title/tt0499549/</url><id>tt0499549</id></entity><entity><title>Tomorrow Never Dies</title><year>1997</year><url>http://akas.imdb.com/title/tt0120347/</url><id>tt0120347</id></entity><entity><title>Avatar: The Last Airbender</title><year>2005</year><url>http://akas.imdb.com/title/tt0417299/</url><id>tt0417299</id></entity><entity><title>The Last Airbender</title><year>2010</year><url>http://akas.imdb.com/title/tt0938283/</url><id>tt0938283</id></entity><entity><title>Avatar</title><year>2005</year><url>http://akas.imdb.com/title/tt0497595/</url><id>tt0497595</id></entity><entity><title>Chrysalis</title><year>2007</year><url>http://akas.imdb.com/title/tt0884335/</url><id>tt0884335</id></entity><entity><title>Avatar</title><year>2004</year><url>http://akas.imdb.com/title/tt0270841/</url><id>tt0270841</id></entity><entity><title>Avatar</title><year>1916</year><url>http://akas.imdb.com/title/tt0278325/</url><id>tt0278325</id></entity><entity><title>Avatar</title><year>1941</year><url>http://akas.imdb.com/title/tt0154182/</url><id>tt0154182</id></entity><entity><title>Avatar</title><year>1964</year><url>http://akas.imdb.com/title/tt0959431/</url><id>tt0959431</id></entity><entity><title>Avatar</title><year>2003</year><url>http://akas.imdb.com/title/tt0375570/</url><id>tt0375570</id></entity><entity><title>Avatar</title><year>2008</year><url>http://akas.imdb.com/title/tt1378189/</url><id>tt1378189</id></entity><entity><title>Avatar</title><year>2006</year><url>http://akas.imdb.com/title/tt1622577/</url><id>tt1622577</id></entity><entity><title>Avatar: The Last Airbender</title><year>2006</year><url>http://akas.imdb.com/title/tt0959552/</url><id>tt0959552</id></entity><entity><title>Avatar: Creating the World of Pandora</title><year>2009</year><url>http://akas.imdb.com/title/tt1599280/</url><id>tt1599280</id></entity><entity><title>Avatar: The Last Airbender - The Burning Earth</title><year>2007</year><url>http://akas.imdb.com/title/tt1459461/</url><id>tt1459461</id></entity><entity><title>Avatar: The Game</title><year>2009</year><url>http://akas.imdb.com/title/tt1517155/</url><id>tt1517155</id></entity><entity><title>Avatar: The Last Airbender - Into the Inferno</title><year>2008</year><url>http://akas.imdb.com/title/tt1459460/</url><id>tt1459460</id></entity><entity><title>Eternity</title><year>1989</year><url>http://akas.imdb.com/title/tt0097298/</url><id>tt0097298</id></entity><entity><title>Ultima IV: Quest of the Avatar</title><year>1985</year><url>http://akas.imdb.com/title/tt0379565/</url><id>tt0379565</id></entity><entity><title>Avatar: Life After Addiction</title><year>2005</year><url>http://akas.imdb.com/title/tt0791222/</url><id>tt0791222</id></entity><entity><title>Galactic Civilizations II: Dark Avatar</title><year>2007</year><url>http://akas.imdb.com/title/tt0969709/</url><id>tt0969709</id></entity><entity><title>Min Avatar og mig</title><year>2010</year><url>http://akas.imdb.com/title/tt1613763/</url><id>tt1613763</id></entity><entity><title>The Avatar: Child of Peace</title><year>2004</year><url>http://akas.imdb.com/title/tt0418480/</url><id>tt0418480</id></entity><entity><title>10th Avatar</title><year>2007</year><url>http://akas.imdb.com/title/tt1548864/</url><id>tt1548864</id></entity><entity><title>Avatar 2</title><year>2014</year><url>http://akas.imdb.com/title/tt1630029/</url><id>tt1630029</id></entity><entity><title>Avatar. Le r&#xE9;cit d&#x27;une longue et lente transformation</title><year>2005</year><url>http://akas.imdb.com/title/tt1590807/</url><id>tt1590807</id></entity><entity><title>Avatar: Movie Special</title><year>2009</year><url>http://akas.imdb.com/title/tt1674680/</url><id>tt1674680</id></entity><entity><title>Bhakta Prahlad</title><year>1932</year><url>http://akas.imdb.com/title/tt0257440/</url><id>tt0257440</id></entity><entity><title>Blues for the Avatar</title><year>1996</year><url>http://akas.imdb.com/title/tt0115719/</url><id>tt0115719</id></entity><entity><title>Ganesh Avatar</title><year>1922</year><url>http://akas.imdb.com/title/tt0391171/</url><id>tt0391171</id></entity><entity><title>Matsya Varah Avatar</title><year>1923</year><url>http://akas.imdb.com/title/tt0392423/</url><id>tt0392423</id></entity><entity><title>Meher Baba: Avatar of the Age</title><year>1989</year><url>http://akas.imdb.com/title/tt0199762/</url><id>tt0199762</id></entity><entity><title>Mohini Avatar</title><year>1926</year><url>http://akas.imdb.com/title/tt0254581/</url><id>tt0254581</id></entity><entity><title>Vaman Avatar</title><year>1930</year><url>http://akas.imdb.com/title/tt0393925/</url><id>tt0393925</id></entity></results>
  320. 11:03:59 T:424 M:1383849984   DEBUG: Thread 424 terminating
  321. 11:03:59 T:3656 M:1383960576    INFO: Loading skin file: DialogSelect.xml
  322. 11:03:59 T:3656 M:1383948288   DEBUG: ------ Window Init (DialogSelect.xml) ------
  323. 11:03:59 T:3656 M:1383878656   DEBUG: ------ Window Deinit (DialogProgress.xml) ------
  324. 11:04:00 T:3656 M:1384079360   DEBUG: SDLKeyboard: scancode: 28, sym: 13, unicode: 13, modifier: 0
  325. 11:04:00 T:3656 M:1384079360   DEBUG: CApplication::OnKey: 61453 pressed, action is Select
  326. 11:04:00 T:3656 M:1384079360   DEBUG: Joystick 0 button 1 Down
  327. 11:04:00 T:3656 M:1384189952   DEBUG: Joystick 0 button 1 Up
  328. 11:04:00 T:3656 M:1384067072   DEBUG: ------ Window Deinit (DialogSelect.xml) ------
  329. 11:04:00 T:3656 M:1384067072    INFO: Loading skin file: DialogProgress.xml
  330. 11:04:00 T:3656 M:1384062976   DEBUG: ------ Window Init (DialogProgress.xml) ------
  331. 11:04:01 T:3656 M:1384034304   DEBUG: CVideoDatabase::GetMovieId (E:\Movies\Avatar\Avatar.mkv), query = select idMovie from movie where idFile=1505
  332. 11:04:01 T:3120 M:1384869888   DEBUG:   msg: PICTURE::LoadImage: Unable to open image: special://masterprofile/Thumbnails/Video/Fanart/8bae5c30.tbn Error: (2)
  333. 11:04:01 T:3120 M:1384869888   ERROR: Texture manager unable to load file: special://masterprofile/Thumbnails/Video/Fanart/8bae5c30.tbn
  334. 11:04:01 T:6484 M:1384820736   DEBUG:   msg: PICTURE::LoadImage: Unable to open image: special://masterprofile/Thumbnails/Video/8/8bae5c30.tbn Error: (2)
  335. 11:04:01 T:6484 M:1384820736   ERROR: Texture manager unable to load file: special://masterprofile/Thumbnails/Video/8/8bae5c30.tbn
  336. 11:04:01 T:3656 M:1384706048   DEBUG: CVideoDatabase::GetMovieId (E:\Movies\Avatar\Avatar.mkv), query = select idMovie from movie where idFile=1505
  337. 11:04:01 T:3656 M:1384697856   DEBUG: VideoInfoScanner: No NFO file found. Using title search for 'E:\Movies\Avatar\Avatar.mkv'
  338. 11:04:01 T:4548 M:1384636416   DEBUG: thread start, auto delete: 0
  339. 11:04:01 T:4548 M:1384570880   DEBUG: FileCurl::Open(0018CDCC) http://akas.imdb.com/title/tt0499549/
  340. 11:04:02 T:4548 M:1384615936   DEBUG: FileCurl::Close(0018CDCC) http://akas.imdb.com/title/tt0499549/
  341. 11:04:02 T:4548 M:1384480768   DEBUG: scraper: GetDetails returned <details><id>tt0499549</id><originaltitle>Avatar</originaltitle><chain function="GetIMDBAKATitlesById">tt0499549</chain><year>2009</year><studio>Twentieth Century Fox Film Corporation</studio><studio>Dune Entertainment</studio><studio>Giant Studios</studio><chain function="GetIMDBPlotById">tt0499549</chain><chain function="GetIMDBCastById">tt0499549</chain><chain function="GetIMDBDirectorsById">tt0499549</chain><chain function="GetIMDBWritersById">tt0499549</chain><chain function="GetTMDBThumbsByIdChain">tt0499549</chain><chain function="GetTMDBFanartByIdChain">tt0499549</chain><chain function="GetHDTrailersnet480p"></chain><chain function="GetIMDBThumbsById">tt0499549</chain></details>
  342. 11:04:02 T:4548 M:1384480768   DEBUG: scraper: GetIMDBAKATitlesById returned <details><url cache="tt0499549-credits.html" function="ParseIMDBAKATitles">http://akas.imdb.com/title/tt0499549</url></details>
  343. 11:04:02 T:4548 M:1384480768   DEBUG: FileCurl::Open(0018CDCC) http://akas.imdb.com/title/tt0499549
  344. 11:04:03 T:4548 M:1386713088   DEBUG: FileCurl::Close(0018CDCC) http://akas.imdb.com/title/tt0499549
  345. 11:04:03 T:4548 M:1386364928   DEBUG: scraper: ParseIMDBAKATitles returned <details><title>Avatar</title></details>
  346. 11:04:03 T:4548 M:1386364928   DEBUG: scraper: GetIMDBPlotById returned <details><url function="GetIMDBPlot">http://akas.imdb.com/title/tt0499549/plotsummary</url></details>
  347. 11:04:03 T:4548 M:1386364928   DEBUG: FileCurl::Open(0018CDCC) http://akas.imdb.com/title/tt0499549/plotsummary
  348. 11:04:05 T:4548 M:1385283584   DEBUG: FileCurl::Close(0018CDCC) http://akas.imdb.com/title/tt0499549/plotsummary
  349. 11:04:05 T:4548 M:1385279488   DEBUG: scraper: GetIMDBPlot returned <details><plot>When his brother is killed in a robbery, paraplegic Marine Jake Sully decides to take his place in a mission on the distant world of Pandora. There he learns of greedy corporate figurehead Parker Selfridge's intentions of driving off the native humanoid "Na'vi" in order to mine for the precious material scattered throughout their rich woodland. In exchange for the spinal surgery that will fix his legs, Jake gathers intel for the cooperating military unit spearheaded by gung-ho Colonel Quaritch, while simultaneously attempting to infiltrate the Na'vi people with the use of an "avatar" identity. While Jake begins to bond with the native tribe and quickly falls in love with the beautiful alien Neytiri, the restless Colonel moves forward with his ruthless extermination tactics, forcing the soldier to take a stand - and fight back in an epic battle for the fate of Pandora.</plot></details>
  350. 11:04:05 T:4548 M:1385279488   DEBUG: scraper: GetIMDBCastById returned <details><url cache="tt0499549-credits.html" function="GetIMDBCast">http://akas.imdb.com/title/tt0499549</url></details>
  351. 11:04:05 T:4548 M:1385189376   DEBUG: scraper: GetIMDBCast returned <details></details>
  352. 11:04:05 T:4548 M:1385189376   DEBUG: scraper: GetIMDBDirectorsById returned <details><url cache="tt0499549-credits.html" function="GetIMDBDirectors">http://akas.imdb.com/title/tt0499549</url></details>
  353. 11:04:05 T:4548 M:1385189376   DEBUG: scraper: GetIMDBDirectors returned <details></details>
  354. 11:04:05 T:4548 M:1385189376   DEBUG: scraper: GetIMDBWritersById returned <details><url cache="tt0499549-credits.html" function="GetIMDBWriters">http://akas.imdb.com/title/tt0499549</url></details>
  355. 11:04:05 T:4548 M:1385189376   DEBUG: scraper: GetIMDBWriters returned <details></details>
  356. 11:04:05 T:4548 M:1385189376   DEBUG: scraper: GetTMDBThumbsByIdChain returned <details><url function="ParseTMDBThumbs" cache="tmdb-images-tt0499549.xml">http://api.themoviedb.org/2.1/Movie.getImages/en/xml/57983e31fb435df4df77afb854740ea9/tt0499549</url></details>
  357. 11:04:05 T:4548 M:1385189376   DEBUG: FileCurl::Open(0018CDCC) http://api.themoviedb.org/2.1/Movie.getImages/en/xml/57983e31fb435df4df77afb854740ea9/tt0499549
  358. 11:04:06 T:4548 M:1384996864   DEBUG: FileCurl::Close(0018CDCC) http://api.themoviedb.org/2.1/Movie.getImages/en/xml/57983e31fb435df4df77afb854740ea9/tt0499549
  359. 11:04:06 T:4548 M:1384968192   DEBUG: scraper: ParseTMDBThumbs returned <details><thumb preview="http://hwcdn.themoviedb.org/posters/a32/4bc95853017a3c57fe027a32/avatar-mid.jpg">http://hwcdn.themoviedb.org/posters/a32/4bc95853017a3c57fe027a32/avatar-original.jpg</thumb><thumb preview="http://hwcdn.themoviedb.org/posters/374/4bd29ddd017a3c63e8000374/avatar-mid.jpg">http://hwcdn.themoviedb.org/posters/374/4bd29ddd017a3c63e8000374/avatar-original.jpg</thumb><thumb preview="http://hwcdn.themoviedb.org/posters/284/4c60d0215e73d63460000284/avatar-mid.jpg">http://hwcdn.themoviedb.org/posters/284/4c60d0215e73d63460000284/avatar-original.jpg</thumb><thumb preview="http://hwcdn.themoviedb.org/posters/351/4bed3468017a3c37ac000351/avatar-mid.jpg">http://hwcdn.themoviedb.org/posters/351/4bed3468017a3c37ac000351/avatar-original.jpg</thumb><thumb preview="http://hwcdn.themoviedb.org/posters/a5a/4bc95859017a3c57fe027a5a/avatar-mid.jpg">http://hwcdn.themoviedb.org/posters/a5a/4bc95859017a3c57fe027a5a/avatar-original.jpg</thumb><thumb preview="http://hwcdn.themoviedb.org/posters/255/4bdda594017a3c20c3000255/avatar-mid.jpg">http://hwcdn.themoviedb.org/posters/255/4bdda594017a3c20c3000255/avatar-original.jpg</thumb><thumb preview="http://hwcdn.themoviedb.org/posters/277/4bd29e03017a3c63eb000277/avatar-mid.jpg">http://hwcdn.themoviedb.org/posters/277/4bd29e03017a3c63eb000277/avatar-original.jpg</thumb><thumb preview="http://hwcdn.themoviedb.org/posters/3d2/4bd2b01b017a3c63f50003d2/avatar-mid.jpg">http://hwcdn.themoviedb.org/posters/3d2/4bd2b01b017a3c63f50003d2/avatar-original.jpg</thumb><thumb preview="http://hwcdn.themoviedb.org/posters/a50/4bc95858017a3c57fe027a50/avatar-mid.jpg">http://hwcdn.themoviedb.org/posters/a50/4bc95858017a3c57fe027a50/avatar-original.jpg</thumb><thumb preview="http://hwcdn.themoviedb.org/posters/0cf/4bedd282017a3c45930000cf/avatar-mid.jpg">http://hwcdn.themoviedb.org/posters/0cf/4bedd282017a3c45930000cf/avatar-original.jpg</thumb><thumb preview="http://hwcdn.themoviedb.org/posters/04b/4bedd253017a3c458900004b/avatar-mid.jpg">http://hwcdn.themoviedb.org/posters/04b/4bedd253017a3c458900004b/avatar-original.jpg</thumb><thumb preview="http://hwcdn.themoviedb.org/posters/a55/4bc95859017a3c57fe027a55/avatar-mid.jpg">http://hwcdn.themoviedb.org/posters/a55/4bc95859017a3c57fe027a55/avatar-original.jpg</thumb><thumb preview="http://hwcdn.themoviedb.org/posters/a64/4bc9585d017a3c57fe027a64/avatar-mid.jpg">http://hwcdn.themoviedb.org/posters/a64/4bc9585d017a3c57fe027a64/avatar-original.jpg</thumb><thumb preview="http://hwcdn.themoviedb.org/posters/a3c/4bc95853017a3c57fe027a3c/avatar-mid.jpg">http://hwcdn.themoviedb.org/posters/a3c/4bc95853017a3c57fe027a3c/avatar-original.jpg</thumb><thumb preview="http://hwcdn.themoviedb.org/posters/a4b/4bc95858017a3c57fe027a4b/avatar-mid.jpg">http://hwcdn.themoviedb.org/posters/a4b/4bc95858017a3c57fe027a4b/avatar-original.jpg</thumb><thumb preview="http://hwcdn.themoviedb.org/posters/a46/4bc95857017a3c57fe027a46/avatar-mid.jpg">http://hwcdn.themoviedb.org/posters/a46/4bc95857017a3c57fe027a46/avatar-original.jpg</thumb><thumb preview="http://hwcdn.themoviedb.org/posters/a5f/4bc9585a017a3c57fe027a5f/avatar-mid.jpg">http://hwcdn.themoviedb.org/posters/a5f/4bc9585a017a3c57fe027a5f/avatar-original.jpg</thumb><thumb preview="http://hwcdn.themoviedb.org/posters/097/4c41ccc25e73d60f3b000097/avatar-mid.jpg">http://hwcdn.themoviedb.org/posters/097/4c41ccc25e73d60f3b000097/avatar-original.jpg</thumb><thumb preview="http://hwcdn.themoviedb.org/posters/1a5/4c6b23605e73d65f7e0001a5/avatar-mid.jpg">http://hwcdn.themoviedb.org/posters/1a5/4c6b23605e73d65f7e0001a5/avatar-original.jpg</thumb></details>
  360. 11:04:06 T:4548 M:1384964096   DEBUG: scraper: GetTMDBFanartByIdChain returned <details><url function="ParseTMDBFanart" cache="tmdb-images-tt0499549.xml">http://api.themoviedb.org/2.1/Movie.getImages/en/xml/57983e31fb435df4df77afb854740ea9/tt0499549</url></details>
  361. 11:04:06 T:4548 M:1384964096   DEBUG: scraper: ParseTMDBFanart returned <details><fanart><thumb preview="http://hwcdn.themoviedb.org/backdrops/a0e/4bc95848017a3c57fe027a0e/avatar-poster.jpg">http://hwcdn.themoviedb.org/backdrops/a0e/4bc95848017a3c57fe027a0e/avatar-original.jpg</thumb><thumb preview="http://hwcdn.themoviedb.org/backdrops/a2e/4bc95852017a3c57fe027a2e/avatar-poster.jpg">http://hwcdn.themoviedb.org/backdrops/a2e/4bc95852017a3c57fe027a2e/avatar-original.jpg</thumb><thumb preview="http://hwcdn.themoviedb.org/backdrops/0e1/4bdd0e91017a3c20c30000e1/avatar-poster.jpg">http://hwcdn.themoviedb.org/backdrops/0e1/4bdd0e91017a3c20c30000e1/avatar-original.jpg</thumb><thumb preview="http://hwcdn.themoviedb.org/backdrops/a1a/4bc9584d017a3c57fe027a1a/avatar-poster.jpg">http://hwcdn.themoviedb.org/backdrops/a1a/4bc9584d017a3c57fe027a1a/avatar-original.jpg</thumb><thumb preview="http://hwcdn.themoviedb.org/backdrops/20e/4bd1e35c017a3c63ea00020e/avatar-poster.jpg">http://hwcdn.themoviedb.org/backdrops/20e/4bd1e35c017a3c63ea00020e/avatar-original.jpg</thumb><thumb preview="http://hwcdn.themoviedb.org/backdrops/a22/4bc9584e017a3c57fe027a22/avatar-poster.jpg">http://hwcdn.themoviedb.org/backdrops/a22/4bc9584e017a3c57fe027a22/avatar-original.jpg</thumb><thumb preview="http://hwcdn.themoviedb.org/backdrops/a2a/4bc9584f017a3c57fe027a2a/avatar-poster.jpg">http://hwcdn.themoviedb.org/backdrops/a2a/4bc9584f017a3c57fe027a2a/avatar-original.jpg</thumb><thumb preview="http://hwcdn.themoviedb.org/backdrops/a02/4bc95846017a3c57fe027a02/avatar-poster.jpg">http://hwcdn.themoviedb.org/backdrops/a02/4bc95846017a3c57fe027a02/avatar-original.jpg</thumb><thumb preview="http://hwcdn.themoviedb.org/backdrops/a26/4bc9584e017a3c57fe027a26/avatar-poster.jpg">http://hwcdn.themoviedb.org/backdrops/a26/4bc9584e017a3c57fe027a26/avatar-original.jpg</thumb><thumb preview="http://hwcdn.themoviedb.org/backdrops/042/4bd5c1c4017a3c658a000042/avatar-poster.jpg">http://hwcdn.themoviedb.org/backdrops/042/4bd5c1c4017a3c658a000042/avatar-original.jpg</thumb><thumb preview="http://hwcdn.themoviedb.org/backdrops/2e7/4bd9de08017a3c1c090002e7/avatar-poster.jpg">http://hwcdn.themoviedb.org/backdrops/2e7/4bd9de08017a3c1c090002e7/avatar-original.jpg</thumb><thumb preview="http://hwcdn.themoviedb.org/backdrops/a16/4bc9584c017a3c57fe027a16/avatar-poster.jpg">http://hwcdn.themoviedb.org/backdrops/a16/4bc9584c017a3c57fe027a16/avatar-original.jpg</thumb><thumb preview="http://hwcdn.themoviedb.org/backdrops/9f6/4bc95844017a3c57fe0279f6/avatar-poster.jpg">http://hwcdn.themoviedb.org/backdrops/9f6/4bc95844017a3c57fe0279f6/avatar-original.jpg</thumb><thumb preview="http://hwcdn.themoviedb.org/backdrops/9f2/4bc95842017a3c57fe0279f2/avatar-poster.jpg">http://hwcdn.themoviedb.org/backdrops/9f2/4bc95842017a3c57fe0279f2/avatar-original.jpg</thumb><thumb preview="http://hwcdn.themoviedb.org/backdrops/9ee/4bc95842017a3c57fe0279ee/avatar-poster.jpg">http://hwcdn.themoviedb.org/backdrops/9ee/4bc95842017a3c57fe0279ee/avatar-original.jpg</thumb><thumb preview="http://hwcdn.themoviedb.org/backdrops/9ea/4bc9583e017a3c57fe0279ea/avatar-poster.jpg">http://hwcdn.themoviedb.org/backdrops/9ea/4bc9583e017a3c57fe0279ea/avatar-original.jpg</thumb><thumb preview="http://hwcdn.themoviedb.org/backdrops/348/4bd9dcff017a3c1bfb000348/avatar-poster.jpg">http://hwcdn.themoviedb.org/backdrops/348/4bd9dcff017a3c1bfb000348/avatar-original.jpg</thumb><thumb preview="http://hwcdn.themoviedb.org/backdrops/a12/4bc9584c017a3c57fe027a12/avatar-poster.jpg">http://hwcdn.themoviedb.org/backdrops/a12/4bc9584c017a3c57fe027a12/avatar-original.jpg</thumb><thumb preview="http://hwcdn.themoviedb.org/backdrops/a1e/4bc9584d017a3c57fe027a1e/avatar-poster.jpg">http://hwcdn.themoviedb.org/backdrops/a1e/4bc9584d017a3c57fe027a1e/avatar-original.jpg</thumb><thumb preview="http://hwcdn.themoviedb.org/backdrops/9fa/4bc95845017a3c57fe0279fa/avatar-poster.jpg">http://hwcdn.themoviedb.org/backdrops/9fa/4bc95845017a3c57fe0279fa/avatar-original.jpg</thumb><thumb preview="http://hwcdn.themoviedb.org/backdrops/9fe/4bc95846017a3c57fe0279fe/avatar-poster.jpg">http://hwcdn.themoviedb.org/backdrops/9fe/4bc95846017a3c57fe0279fe/avatar-original.jpg</thumb></fanart></details>
  362. 11:04:06 T:4548 M:1384955904   DEBUG: Thread 4548 terminating
  363. 11:04:06 T:3656 M:1384837120   DEBUG: VideoInfoScanner: Adding new item to movies:E:\Movies\Avatar\Avatar.mkv
  364. 11:04:06 T:3656 M:1384837120   DEBUG: CVideoDatabase::GetMovieId (E:\Movies\Avatar\Avatar.mkv), query = select idMovie from movie where idFile=1505
  365. 11:04:06 T:3656 M:1384521728   DEBUG: Previous line repeats 1 times.
  366. 11:04:06 T:3656 M:1384521728    INFO: Caching image from: http://hwcdn.themoviedb.org/backdrops/a0e/4bc95848017a3c57fe027a0e/avatar-original.jpg to special://masterprofile/Thumbnails/Video/Fanart/8bae5c30.tbn
  367. 11:04:06 T:3656 M:1384521728   DEBUG: FileCurl::Open(077030A0) http://hwcdn.themoviedb.org/backdrops/a0e/4bc95848017a3c57fe027a0e/avatar-original.jpg
  368. 11:04:06 T:3656 M:1384460288    INFO: XCURL::DllLibCurlGlobal::easy_aquire - Created session to http://hwcdn.themoviedb.org
  369. 11:04:06 T:3656 M:1384214528   DEBUG: FileCurl::Close(077030A0) http://hwcdn.themoviedb.org/backdrops/a0e/4bc95848017a3c57fe027a0e/avatar-original.jpg
  370. 11:04:06 T:3656 M:1384210432    INFO: Caching image from: http://hwcdn.themoviedb.org/posters/a32/4bc95853017a3c57fe027a32/avatar-original.jpg to special://masterprofile/Thumbnails/Video/8/8bae5c30.tbn with width 512 and height 512
  371. 11:04:06 T:3656 M:1384210432   DEBUG: FileCurl::Open(0018D064) http://hwcdn.themoviedb.org/posters/a32/4bc95853017a3c57fe027a32/avatar-original.jpg
  372. 11:04:06 T:3656 M:1384202240   DEBUG: FileCurl::Close(0018D064) http://hwcdn.themoviedb.org/posters/a32/4bc95853017a3c57fe027a32/avatar-original.jpg
  373. 11:04:06 T:3656 M:1380864000   DEBUG: CVideoDatabase::GetMovieId (E:\Movies\Avatar\Avatar.mkv), query = select idMovie from movie where idFile=1505
  374. 11:04:06 T:3656 M:1383870464   DEBUG: ------ Window Init (DialogVideoInfo.xml) ------
  375. 11:04:06 T:4388 M:1383870464   DEBUG: CThumbExtractor::DoWork - trying to extract filestream details from video file E:\Movies\Avatar\Avatar.mkv
  376. 11:04:06 T:3656 M:1383870464    INFO: Loading skin file: DialogVideoInfo.xml
  377. 11:04:06 T:4388 M:1383845888   DEBUG: Win32DllLoader::Load(special://xbmcbin/system/players/dvdplayer/avutil-50.dll)
  378. 11:04:06 T:4388 M:1383763968   DEBUG: Win32DllLoader::Load(special://xbmcbin/system/players/dvdplayer/avcodec-52.dll)
  379. 11:04:06 T:4388 M:1380466688   DEBUG: Win32DllLoader::Load(special://xbmcbin/system/players/dvdplayer/libfaad.dll)
  380. 11:04:06 T:4388 M:1380446208   DEBUG: Win32DllLoader::Load(special://xbmcbin/system/players/dvdplayer/avformat-52.dll)
  381. 11:04:07 T:3656 M:1339310080   DEBUG: ------ Window Deinit (DialogProgress.xml) ------
  382. 11:04:07 T:3120 M:1333624832   DEBUG: CImageLoader::DoWork - took 108 ms to load special://masterprofile/Thumbnails/Video/Fanart/8bae5c30.tbn
  383. 11:04:07 T:4388 M:1342423040   DEBUG: CDVDDemuxFFmpeg::Open - probing detected format [matroska]
  384. 11:04:07 T:4388 M:1342083072   DEBUG: CDVDDemuxFFmpeg::Open - av_find_stream_info starting
  385. 11:04:07 T:4388 M:1340207104   DEBUG: CDVDDemuxFFmpeg::Open - av_find_stream_info finished
  386. 11:04:07 T:4388 M:1340198912    INFO: ffmpeg[1124]: Input #0, matroska, from 'E:\Movies\Avatar\Avatar.mkv':
  387. 11:04:07 T:4388 M:1340198912    INFO: ffmpeg[1124]:   Metadata:
  388. 11:04:07 T:4388 M:1340198912    INFO: ffmpeg[1124]:     title           : Avatar.2009.BluRay.1080p.DTS.x264.dxva-EuReKA
  389. 11:04:07 T:4388 M:1340514304    INFO: ffmpeg[1124]:   Duration: 02:41:41.68, start: 0.000000, bitrate: 17338 kb/s
  390. 11:04:07 T:4388 M:1340198912    INFO: ffmpeg[1124]:     Chapter #0.0: start 0.000000, end 377.961000
  391. 11:04:07 T:4388 M:1340198912    INFO: ffmpeg[1124]:     Metadata:
  392. 11:04:07 T:4388 M:1340198912    INFO: ffmpeg[1124]:       title           : 00:00:00.000
  393. 11:04:07 T:4388 M:1340198912    INFO: ffmpeg[1124]:     Chapter #0.1: start 377.961000, end 473.598000
  394. 11:04:07 T:4388 M:1340198912    INFO: ffmpeg[1124]:     Metadata:
  395. 11:04:07 T:4388 M:1340198912    INFO: ffmpeg[1124]:       title           : 00:06:17.961
  396. 11:04:07 T:4388 M:1340596224    INFO: ffmpeg[1124]:     Chapter #0.2: start 473.598000, end 724.891000
  397. 11:04:07 T:4388 M:1340198912    INFO: ffmpeg[1124]:     Metadata:
  398. 11:04:07 T:4388 M:1340198912    INFO: ffmpeg[1124]:       title           : 00:07:53.598
  399. 11:04:07 T:4388 M:1340198912    INFO: ffmpeg[1124]:     Chapter #0.3: start 724.891000, end 840.465000
  400. 11:04:07 T:4388 M:1340198912    INFO: ffmpeg[1124]:     Metadata:
  401. 11:04:07 T:4388 M:1340198912    INFO: ffmpeg[1124]:       title           : 00:12:04.891
  402. 11:04:07 T:4388 M:1340465152    INFO: ffmpeg[1124]:     Chapter #0.4: start 840.465000, end 1200.574000
  403. 11:04:07 T:4388 M:1340506112    INFO: ffmpeg[1124]:     Metadata:
  404. 11:04:07 T:4388 M:1340198912    INFO: ffmpeg[1124]:       title           : 00:14:00.465
  405. 11:04:07 T:4388 M:1340198912    INFO: ffmpeg[1124]:     Chapter #0.5: start 1200.574000, end 1440.230000
  406. 11:04:07 T:4388 M:1340198912    INFO: ffmpeg[1124]:     Metadata:
  407. 11:04:07 T:4388 M:1340198912    INFO: ffmpeg[1124]:       title           : 00:20:00.574
  408. 11:04:07 T:4388 M:1340198912    INFO: ffmpeg[1124]:     Chapter #0.6: start 1440.230000, end 1613.278000
  409. 11:04:07 T:4388 M:1340530688    INFO: ffmpeg[1124]:     Metadata:
  410. 11:04:07 T:4388 M:1340448768    INFO: ffmpeg[1124]:       title           : 00:24:00.230
  411. 11:04:07 T:4388 M:1340198912    INFO: ffmpeg[1124]:     Chapter #0.7: start 1613.278000, end 1901.900000
  412. 11:04:07 T:4388 M:1340198912    INFO: ffmpeg[1124]:     Metadata:
  413. 11:04:07 T:4388 M:1340198912    INFO: ffmpeg[1124]:       title           : 00:26:53.278
  414. 11:04:07 T:4388 M:1340198912    INFO: ffmpeg[1124]:     Chapter #0.8: start 1901.900000, end 2013.428000
  415. 11:04:07 T:4388 M:1340284928    INFO: ffmpeg[1124]:     Metadata:
  416. 11:04:07 T:4388 M:1340534784    INFO: ffmpeg[1124]:       title           : 00:31:41.900
  417. 11:04:07 T:4388 M:1340194816    INFO: ffmpeg[1124]:     Chapter #0.9: start 2013.428000, end 2143.850000
  418. 11:04:07 T:4388 M:1340194816    INFO: ffmpeg[1124]:     Metadata:
  419. 11:04:07 T:4388 M:1340194816    INFO: ffmpeg[1124]:       title           : 00:33:33.428
  420. 11:04:07 T:4388 M:1340194816    INFO: ffmpeg[1124]:     Chapter #0.10: start 2143.850000, end 2611.859000
  421. 11:04:07 T:4388 M:1340194816    INFO: ffmpeg[1124]:     Metadata:
  422. 11:04:07 T:4388 M:1340706816    INFO: ffmpeg[1124]:       title           : 00:35:43.850
  423. 11:04:07 T:4388 M:1340194816    INFO: ffmpeg[1124]:     Chapter #0.11: start 2611.859000, end 2963.627000
  424. 11:04:07 T:4388 M:1340194816    INFO: ffmpeg[1124]:     Metadata:
  425. 11:04:07 T:4388 M:1340194816    INFO: ffmpeg[1124]:       title           : 00:43:31.859
  426. 11:04:07 T:4388 M:1340194816    INFO: ffmpeg[1124]:     Chapter #0.12: start 2963.627000, end 3269.975000
  427. 11:04:07 T:4388 M:1340194816    INFO: ffmpeg[1124]:     Metadata:
  428. 11:04:07 T:4388 M:1340547072    INFO: ffmpeg[1124]:       title           : 00:49:23.627
  429. 11:04:07 T:4388 M:1340227584    INFO: ffmpeg[1124]:     Chapter #0.13: start 3269.975000, end 3596.051000
  430. 11:04:07 T:4388 M:1340194816    INFO: ffmpeg[1124]:     Metadata:
  431. 11:04:07 T:4388 M:1340194816    INFO: ffmpeg[1124]:       title           : 00:54:29.975
  432. 11:04:07 T:4388 M:1340194816    INFO: ffmpeg[1124]:     Chapter #0.14: start 3596.051000, end 3910.198000
  433. 11:04:07 T:4388 M:1340194816    INFO: ffmpeg[1124]:     Metadata:
  434. 11:04:07 T:4388 M:1340272640    INFO: ffmpeg[1124]:       title           : 00:59:56.051
  435. 11:04:07 T:4388 M:1340461056    INFO: ffmpeg[1124]:     Chapter #0.15: start 3910.198000, end 4296.417000
  436. 11:04:07 T:4388 M:1340194816    INFO: ffmpeg[1124]:     Metadata:
  437. 11:04:07 T:4388 M:1340194816    INFO: ffmpeg[1124]:       title           : 01:05:10.198
  438. 11:04:07 T:4388 M:1340194816    INFO: ffmpeg[1124]:     Chapter #0.16: start 4296.417000, end 4511.006000
  439. 11:04:07 T:4388 M:1340194816    INFO: ffmpeg[1124]:     Metadata:
  440. 11:04:07 T:4388 M:1340194816    INFO: ffmpeg[1124]:       title           : 01:11:36.417
  441. 11:04:07 T:4388 M:1340555264    INFO: ffmpeg[1124]:     Chapter #0.17: start 4511.006000, end 4829.116000
  442. 11:04:07 T:4388 M:1340194816    INFO: ffmpeg[1124]:     Metadata:
  443. 11:04:07 T:4388 M:1340194816    INFO: ffmpeg[1124]:       title           : 01:15:11.006
  444. 11:04:07 T:4388 M:1340194816    INFO: ffmpeg[1124]:     Chapter #0.18: start 4829.116000, end 5081.910000
  445. 11:04:07 T:4388 M:1340194816    INFO: ffmpeg[1124]:     Metadata:
  446. 11:04:07 T:4388 M:1340194816    INFO: ffmpeg[1124]:       title           : 01:20:29.116
  447. 11:04:07 T:4388 M:1340657664    INFO: ffmpeg[1124]:     Chapter #0.19: start 5081.910000, end 5764.801000
  448. 11:04:07 T:4388 M:1340334080    INFO: ffmpeg[1124]:     Metadata:
  449. 11:04:07 T:4388 M:1340194816    INFO: ffmpeg[1124]:       title           : 01:24:41.910
  450. 11:04:07 T:4388 M:1340194816    INFO: ffmpeg[1124]:     Chapter #0.20: start 5764.801000, end 5875.786000
  451. 11:04:07 T:4388 M:1340194816    INFO: ffmpeg[1124]:     Metadata:
  452. 11:04:07 T:4388 M:1340194816    INFO: ffmpeg[1124]:       title           : 01:36:04.801
  453. 11:04:07 T:4388 M:1340518400    INFO: ffmpeg[1124]:     Chapter #0.21: start 5875.786000, end 6273.100000
  454. 11:04:07 T:4388 M:1340452864    INFO: ffmpeg[1124]:     Metadata:
  455. 11:04:07 T:4388 M:1340198912    INFO: ffmpeg[1124]:       title           : 01:37:55.786
  456. 11:04:07 T:4388 M:1340198912    INFO: ffmpeg[1124]:     Chapter #0.22: start 6273.100000, end 6495.489000
  457. 11:04:07 T:4388 M:1340198912    INFO: ffmpeg[1124]:     Metadata:
  458. 11:04:07 T:4388 M:1340198912    INFO: ffmpeg[1124]:       title           : 01:44:33.100
  459. 11:04:07 T:4388 M:1340239872    INFO: ffmpeg[1124]:     Chapter #0.23: start 6495.489000, end 6833.868000
  460. 11:04:07 T:4388 M:1340690432    INFO: ffmpeg[1124]:     Metadata:
  461. 11:04:07 T:4388 M:1340248064    INFO: ffmpeg[1124]:       title           : 01:48:15.489
  462. 11:04:07 T:4388 M:1340198912    INFO: ffmpeg[1124]:     Chapter #0.24: start 6833.868000, end 6932.884000
  463. 11:04:07 T:4388 M:1340194816    INFO: ffmpeg[1124]:     Metadata:
  464. 11:04:07 T:4388 M:1340542976    INFO: ffmpeg[1124]:       title           : 01:53:53.868
  465. 11:04:07 T:4388 M:1340203008    INFO: ffmpeg[1124]:     Chapter #0.25: start 6932.884000, end 7118.820000
  466. 11:04:07 T:4388 M:1340203008    INFO: ffmpeg[1124]:     Metadata:
  467. 11:04:07 T:4388 M:1340203008    INFO: ffmpeg[1124]:       title           : 01:55:32.884
  468. 11:04:07 T:4388 M:1340203008    INFO: ffmpeg[1124]:     Chapter #0.26: start 7118.820000, end 7325.568000
  469. 11:04:07 T:4388 M:1340203008    INFO: ffmpeg[1124]:     Metadata:
  470. 11:04:07 T:4388 M:1340399616    INFO: ffmpeg[1124]:       title           : 01:58:38.820
  471. 11:04:07 T:4388 M:1340334080    INFO: ffmpeg[1124]:     Chapter #0.27: start 7325.568000, end 7533.859000
  472. 11:04:07 T:4388 M:1340207104    INFO: ffmpeg[1124]:     Metadata:
  473. 11:04:07 T:4388 M:1340207104    INFO: ffmpeg[1124]:       title           : 02:02:05.568
  474. 11:04:07 T:4388 M:1340207104    INFO: ffmpeg[1124]:     Chapter #0.28: start 7533.859000, end 7801.835000
  475. 11:04:07 T:4388 M:1340207104    INFO: ffmpeg[1124]:     Metadata:
  476. 11:04:07 T:4388 M:1340387328    INFO: ffmpeg[1124]:       title           : 02:05:33.859
  477. 11:04:07 T:4388 M:1340370944    INFO: ffmpeg[1124]:     Chapter #0.29: start 7801.835000, end 8167.284000
  478. 11:04:07 T:4388 M:1340211200    INFO: ffmpeg[1124]:     Metadata:
  479. 11:04:07 T:4388 M:1340211200    INFO: ffmpeg[1124]:       title           : 02:10:01.835
  480. 11:04:07 T:4388 M:1340211200    INFO: ffmpeg[1124]:     Chapter #0.30: start 8167.284000, end 8390.841000
  481. 11:04:07 T:4388 M:1340211200    INFO: ffmpeg[1124]:     Metadata:
  482. 11:04:07 T:4388 M:1340231680    INFO: ffmpeg[1124]:       title           : 02:16:07.284
  483. 11:04:07 T:4388 M:1340489728    INFO: ffmpeg[1124]:     Chapter #0.31: start 8390.841000, end 8750.325000
  484. 11:04:07 T:4388 M:1340223488    INFO: ffmpeg[1124]:     Metadata:
  485. 11:04:07 T:4388 M:1340223488    INFO: ffmpeg[1124]:       title           : 02:19:50.841
  486. 11:04:07 T:4388 M:1340223488    INFO: ffmpeg[1124]:     Chapter #0.32: start 8750.325000, end 9074.065000
  487. 11:04:07 T:4388 M:1340223488    INFO: ffmpeg[1124]:     Metadata:
  488. 11:04:07 T:4388 M:1340305408    INFO: ffmpeg[1124]:       title           : 02:25:50.325
  489. 11:04:07 T:4388 M:1340424192    INFO: ffmpeg[1124]:     Chapter #0.33: start 9074.065000, end 9305.296000
  490. 11:04:07 T:4388 M:1340239872    INFO: ffmpeg[1124]:     Metadata:
  491. 11:04:07 T:4388 M:1340239872    INFO: ffmpeg[1124]:       title           : 02:31:14.065
  492. 11:04:07 T:4388 M:1340239872    INFO: ffmpeg[1124]:     Chapter #0.34: start 9305.296000, end 9701.686000
  493. 11:04:07 T:4388 M:1340239872    INFO: ffmpeg[1124]:     Metadata:
  494. 11:04:07 T:4388 M:1340407808    INFO: ffmpeg[1124]:       title           : 02:35:05.296
  495. 11:04:07 T:4388 M:1340461056    INFO: ffmpeg[1124]:     Stream #0.0(eng): Video: h264, yuv420p, 1920x1080 [PAR 1:1 DAR 16:9], 23.98 fps, 24 tbr, 1k tbn, 47.95 tbc
  496. 11:04:07 T:4388 M:1340370944    INFO: ffmpeg[1124]:     Metadata:
  497. 11:04:07 T:4388 M:1340284928    INFO: ffmpeg[1124]:       title           : x264 - crf encode @ 55% of the original bitrate
  498. 11:04:07 T:4388 M:1340616704    INFO: ffmpeg[1124]:     Stream #0.1(eng): Audio: dca, 48000 Hz, 6 channels, s16
  499. 11:04:07 T:4388 M:1340301312    INFO: ffmpeg[1124]:     Metadata:
  500. 11:04:07 T:4388 M:1340301312    INFO: ffmpeg[1124]:       title           : DTS - 1536 kbit/sec
  501. 11:04:07 T:4388 M:1340309504    INFO: ffmpeg[1124]:     Stream #0.2(eng): Subtitle: [0][0][0][0] / 0x0000
  502. 11:04:07 T:4388 M:1340309504    INFO: ffmpeg[1124]:     Metadata:
  503. 11:04:07 T:4388 M:1340346368    INFO: ffmpeg[1124]:       title           : non-English parts
  504. 11:04:07 T:4388 M:1340383232    INFO: ffmpeg[1124]:     Stream #0.3(eng): Subtitle: [0][0][0][0] / 0x0000
  505. 11:04:07 T:4388 M:1340604416    INFO: ffmpeg[1124]:     Stream #0.4(dut): Subtitle: [0][0][0][0] / 0x0000
  506. 11:04:07 T:4388 M:1340522496    INFO: ffmpeg[1124]:     Stream #0.5(bul): Subtitle: [0][0][0][0] / 0x0000
  507. 11:04:07 T:4388 M:1340420096    INFO: ffmpeg[1124]:     Stream #0.6: Subtitle: [0][0][0][0] / 0x0000
  508. 11:04:07 T:4388 M:1340416000    INFO: ffmpeg[1124]:     Metadata:
  509. 11:04:07 T:4388 M:1340588032    INFO: ffmpeg[1124]:       title           : Croatian/Servian
  510. 11:04:07 T:4388 M:1340465152    INFO: ffmpeg[1124]:     Stream #0.7(fin): Subtitle: [0][0][0][0] / 0x0000
  511. 11:04:07 T:4388 M:1340530688    INFO: ffmpeg[1124]:     Stream #0.8(fre): Subtitle: [0][0][0][0] / 0x0000
  512. 11:04:07 T:4388 M:1340575744    INFO: ffmpeg[1124]:     Stream #0.9(gre): Subtitle: [0][0][0][0] / 0x0000
  513. 11:04:07 T:4388 M:1340698624    INFO: ffmpeg[1124]:     Stream #0.10(por): Subtitle: [0][0][0][0] / 0x0000
  514. 11:04:07 T:4388 M:1340702720    INFO: ffmpeg[1124]:     Stream #0.11(rum): Subtitle: [0][0][0][0] / 0x0000
  515. 11:04:07 T:4388 M:1340702720    INFO: ffmpeg[1124]:     Stream #0.12(swe): Subtitle: [0][0][0][0] / 0x0000
  516. 11:04:07 T:4388 M:1340702720    INFO: ffmpeg[1124]:     Stream #0.13(ara): Subtitle: [0][0][0][0] / 0x0000
  517. 11:04:09 T:3656 M:1340715008    INFO: XCURL::DllLibCurlGlobal::CheckIdle - Closing session to http://xoap.weather.com (easy=02D8C8E8, multi=003A7FF8)
  518. 11:04:10 T:3656 M:1344024576   DEBUG: SDLKeyboard: scancode: 14, sym: 8, unicode: 8, modifier: 0
  519. 11:04:10 T:3656 M:1344024576   DEBUG: CApplication::OnKey: 61448 pressed, action is Close
  520. 11:04:10 T:3656 M:1344024576   DEBUG: Joystick 0 button 2 Down
  521. 11:04:11 T:3656 M:1344024576   DEBUG: ------ Window Deinit (DialogVideoInfo.xml) ------
  522. 11:04:11 T:3656 M:1344024576   DEBUG: CGUIMediaWindow::GetDirectory (videodb://1/2/)
  523. 11:04:11 T:3656 M:1344024576   DEBUG:   ParentPath = [videodb://1/2/]
  524. 11:04:11 T:6484 M:1344024576   DEBUG: CVideoDatabase::GetSetsNav query: select sets.idSet,sets.strSet,count(1),count(files.playCount) from sets join setlinkmovie on sets.idSet=setlinkmovie.idSet join movie on setlinkmovie.idMovie=movie.idMovie join files on files.idFile=movie.idFile  group by sets.idSet
  525. 11:04:11 T:6484 M:1344024576   DEBUG: CVideoDatabase::GetMoviesByWhere query: select * from movieview where movieview.idMovie NOT in (select idMovie from setlinkmovie)
  526. 11:04:11 T:6484 M:1343639552   DEBUG: Time for actual SQL query = 19
  527. 11:04:11 T:6484 M:1341751296   DEBUG: Time to retrieve movies from dataset = 60
  528. 11:04:11 T:3656 M:1341726720   DEBUG: Saving fileitems [videodb://1/2/]
  529. 11:04:11 T:3656 M:1340911616   DEBUG:   -- items: 182, sort method: 24, ascending: true
  530. 11:04:11 T:6560 M:1340882944   DEBUG: thread start, auto delete: 0
  531. 11:04:11 T:3656 M:1340878848   DEBUG: Joystick 0 button 2 Up
  532. 11:04:11 T:3120 M:1341517824   DEBUG: CThumbExtractor::DoWork - trying to extract filestream details from video file E:\Movies\Avatar\Avatar.mkv
  533. 11:04:11 T:3120 M:1341452288   DEBUG: CDVDDemuxFFmpeg::Open - probing detected format [matroska]
  534. 11:04:11 T:3120 M:1341247488   DEBUG: CDVDDemuxFFmpeg::Open - av_find_stream_info starting
  535. 11:04:11 T:3120 M:1338712064   DEBUG: CDVDDemuxFFmpeg::Open - av_find_stream_info finished
  536. 11:04:11 T:3120 M:1338712064    INFO: ffmpeg[C30]: Input #0, matroska, from 'E:\Movies\Avatar\Avatar.mkv':
  537. 11:04:11 T:3120 M:1338712064    INFO: ffmpeg[C30]:   Metadata:
  538. 11:04:11 T:3120 M:1338712064    INFO: ffmpeg[C30]:     title           : Avatar.2009.BluRay.1080p.DTS.x264.dxva-EuReKA
  539. 11:04:11 T:3120 M:1338712064    INFO: ffmpeg[C30]:   Duration: 02:41:41.68, start: 0.000000, bitrate: 17338 kb/s
  540. 11:04:11 T:3120 M:1339027456    INFO: ffmpeg[C30]:     Chapter #0.0: start 0.000000, end 377.961000
  541. 11:04:11 T:3120 M:1338712064    INFO: ffmpeg[C30]:     Metadata:
  542. 11:04:11 T:3120 M:1338712064    INFO: ffmpeg[C30]:       title           : 00:00:00.000
  543. 11:04:11 T:3120 M:1338712064    INFO: ffmpeg[C30]:     Chapter #0.1: start 377.961000, end 473.598000
  544. 11:04:11 T:3120 M:1338806272    INFO: ffmpeg[C30]:     Metadata:
  545. 11:04:11 T:3120 M:1339158528    INFO: ffmpeg[C30]:       title           : 00:06:17.961
  546. 11:04:11 T:3120 M:1338712064    INFO: ffmpeg[C30]:     Chapter #0.2: start 473.598000, end 724.891000
  547. 11:04:11 T:3120 M:1338712064    INFO: ffmpeg[C30]:     Metadata:
  548. 11:04:11 T:3120 M:1338712064    INFO: ffmpeg[C30]:       title           : 00:07:53.598
  549. 11:04:11 T:3120 M:1338707968    INFO: ffmpeg[C30]:     Chapter #0.3: start 724.891000, end 840.465000
  550. 11:04:11 T:3120 M:1338707968    INFO: ffmpeg[C30]:     Metadata:
  551. 11:04:11 T:3120 M:1338707968    INFO: ffmpeg[C30]:       title           : 00:12:04.891
  552. 11:04:11 T:3120 M:1338707968    INFO: ffmpeg[C30]:     Chapter #0.4: start 840.465000, end 1200.574000
  553. 11:04:11 T:3120 M:1338834944    INFO: ffmpeg[C30]:     Metadata:
  554. 11:04:11 T:3120 M:1339117568    INFO: ffmpeg[C30]:       title           : 00:14:00.465
  555. 11:04:11 T:3120 M:1338707968    INFO: ffmpeg[C30]:     Chapter #0.5: start 1200.574000, end 1440.230000
  556. 11:04:11 T:3120 M:1338707968    INFO: ffmpeg[C30]:     Metadata:
  557. 11:04:11 T:3120 M:1338707968    INFO: ffmpeg[C30]:       title           : 00:20:00.574
  558. 11:04:11 T:3120 M:1338707968    INFO: ffmpeg[C30]:     Chapter #0.6: start 1440.230000, end 1613.278000
  559. 11:04:11 T:3120 M:1338798080    INFO: ffmpeg[C30]:     Metadata:
  560. 11:04:11 T:3120 M:1339158528    INFO: ffmpeg[C30]:       title           : 00:24:00.230
  561. 11:04:11 T:3120 M:1338707968    INFO: ffmpeg[C30]:     Chapter #0.7: start 1613.278000, end 1901.900000
  562. 11:04:11 T:3120 M:1338707968    INFO: ffmpeg[C30]:     Metadata:
  563. 11:04:11 T:3120 M:1338707968    INFO: ffmpeg[C30]:       title           : 00:26:53.278
  564. 11:04:11 T:3120 M:1338707968    INFO: ffmpeg[C30]:     Chapter #0.8: start 1901.900000, end 2013.428000
  565. 11:04:11 T:3120 M:1338707968    INFO: ffmpeg[C30]:     Metadata:
  566. 11:04:11 T:3120 M:1339047936    INFO: ffmpeg[C30]:       title           : 00:31:41.900
  567. 11:04:11 T:3120 M:1338748928    INFO: ffmpeg[C30]:     Chapter #0.9: start 2013.428000, end 2143.850000
  568. 11:04:11 T:3120 M:1338707968    INFO: ffmpeg[C30]:     Metadata:
  569. 11:04:11 T:3120 M:1338707968    INFO: ffmpeg[C30]:       title           : 00:33:33.428
  570. 11:04:11 T:3120 M:1338707968    INFO: ffmpeg[C30]:     Chapter #0.10: start 2143.850000, end 2611.859000
  571. 11:04:11 T:3120 M:1338707968    INFO: ffmpeg[C30]:     Metadata:
  572. 11:04:11 T:3120 M:1338920960    INFO: ffmpeg[C30]:       title           : 00:35:43.850
  573. 11:04:11 T:3120 M:1338859520    INFO: ffmpeg[C30]:     Chapter #0.11: start 2611.859000, end 2963.627000
  574. 11:04:11 T:3120 M:1338707968    INFO: ffmpeg[C30]:     Metadata:
  575. 11:04:11 T:3120 M:1338707968    INFO: ffmpeg[C30]:       title           : 00:43:31.859
  576. 11:04:11 T:3120 M:1338707968    INFO: ffmpeg[C30]:     Chapter #0.12: start 2963.627000, end 3269.975000
  577. 11:04:11 T:3120 M:1338707968    INFO: ffmpeg[C30]:     Metadata:
  578. 11:04:11 T:3120 M:1338707968    INFO: ffmpeg[C30]:       title           : 00:49:23.627
  579. 11:04:11 T:3120 M:1339097088    INFO: ffmpeg[C30]:     Chapter #0.13: start 3269.975000, end 3596.051000
  580. 11:04:11 T:3120 M:1338707968    INFO: ffmpeg[C30]:     Metadata:
  581. 11:04:11 T:3120 M:1338707968    INFO: ffmpeg[C30]:       title           : 00:54:29.975
  582. 11:04:11 T:3120 M:1338707968    INFO: ffmpeg[C30]:     Chapter #0.14: start 3596.051000, end 3910.198000
  583. 11:04:11 T:3120 M:1338707968    INFO: ffmpeg[C30]:     Metadata:
  584. 11:04:11 T:3120 M:1338707968    INFO: ffmpeg[C30]:       title           : 00:59:56.051
  585. 11:04:11 T:3120 M:1339207680    INFO: ffmpeg[C30]:     Chapter #0.15: start 3910.198000, end 4296.417000
  586. 11:04:11 T:3120 M:1338757120    INFO: ffmpeg[C30]:     Metadata:
  587. 11:04:11 T:3120 M:1338707968    INFO: ffmpeg[C30]:       title           : 01:05:10.198
  588. 11:04:11 T:3120 M:1338707968    INFO: ffmpeg[C30]:     Chapter #0.16: start 4296.417000, end 4511.006000
  589. 11:04:11 T:3120 M:1338707968    INFO: ffmpeg[C30]:     Metadata:
  590. 11:04:11 T:3120 M:1338707968    INFO: ffmpeg[C30]:       title           : 01:11:36.417
  591. 11:04:11 T:3120 M:1339035648    INFO: ffmpeg[C30]:     Chapter #0.17: start 4511.006000, end 4829.116000
  592. 11:04:11 T:3120 M:1338953728    INFO: ffmpeg[C30]:     Metadata:
  593. 11:04:11 T:3120 M:1338712064    INFO: ffmpeg[C30]:       title           : 01:15:11.006
  594. 11:04:11 T:3120 M:1338712064    INFO: ffmpeg[C30]:     Chapter #0.18: start 4829.116000, end 5081.910000
  595. 11:04:11 T:3120 M:1338712064    INFO: ffmpeg[C30]:     Metadata:
  596. 11:04:11 T:3120 M:1338707968    INFO: ffmpeg[C30]:       title           : 01:20:29.116
  597. 11:04:11 T:3120 M:1339154432    INFO: ffmpeg[C30]:     Chapter #0.19: start 5081.910000, end 5764.801000
  598. 11:04:11 T:3120 M:1338707968    INFO: ffmpeg[C30]:     Metadata:
  599. 11:04:11 T:3120 M:1338707968    INFO: ffmpeg[C30]:       title           : 01:24:41.910
  600. 11:04:11 T:3120 M:1338707968    INFO: ffmpeg[C30]:     Chapter #0.20: start 5764.801000, end 5875.786000
  601. 11:04:11 T:3120 M:1338707968    INFO: ffmpeg[C30]:     Metadata:
  602. 11:04:11 T:3120 M:1338707968    INFO: ffmpeg[C30]:       title           : 01:36:04.801
  603. 11:04:11 T:3120 M:1339084800    INFO: ffmpeg[C30]:     Chapter #0.21: start 5875.786000, end 6273.100000
  604. 11:04:11 T:3120 M:1338904576    INFO: ffmpeg[C30]:     Metadata:
  605. 11:04:11 T:3120 M:1338712064    INFO: ffmpeg[C30]:       title           : 01:37:55.786
  606. 11:04:11 T:3120 M:1338712064    INFO: ffmpeg[C30]:     Chapter #0.22: start 6273.100000, end 6495.489000
  607. 11:04:11 T:3120 M:1338712064    INFO: ffmpeg[C30]:     Metadata:
  608. 11:04:11 T:3120 M:1338712064    INFO: ffmpeg[C30]:       title           : 01:44:33.100
  609. 11:04:11 T:3120 M:1338748928    INFO: ffmpeg[C30]:     Chapter #0.23: start 6495.489000, end 6833.868000
  610. 11:04:11 T:3120 M:1338724352    INFO: ffmpeg[C30]:     Metadata:
  611. 11:04:11 T:3120 M:1338724352    INFO: ffmpeg[C30]:       title           : 01:48:15.489
  612. 11:04:11 T:3120 M:1338724352    INFO: ffmpeg[C30]:     Chapter #0.24: start 6833.868000, end 6932.884000
  613. 11:04:11 T:3120 M:1338724352    INFO: ffmpeg[C30]:     Metadata:
  614. 11:04:11 T:3120 M:1339056128    INFO: ffmpeg[C30]:       title           : 01:53:53.868
  615. 11:04:11 T:3120 M:1338740736    INFO: ffmpeg[C30]:     Chapter #0.25: start 6932.884000, end 7118.820000
  616. 11:04:11 T:3120 M:1338740736    INFO: ffmpeg[C30]:     Metadata:
  617. 11:04:11 T:3120 M:1338740736    INFO: ffmpeg[C30]:       title           : 01:55:32.884
  618. 11:04:11 T:3120 M:1338740736    INFO: ffmpeg[C30]:     Chapter #0.26: start 7118.820000, end 7325.568000
  619. 11:04:11 T:3120 M:1338740736    INFO: ffmpeg[C30]:     Metadata:
  620. 11:04:11 T:3120 M:1339215872    INFO: ffmpeg[C30]:       title           : 01:58:38.820
  621. 11:04:11 T:3120 M:1338753024    INFO: ffmpeg[C30]:     Chapter #0.27: start 7325.568000, end 7533.859000
  622. 11:04:11 T:3120 M:1338753024    INFO: ffmpeg[C30]:     Metadata:
  623. 11:04:11 T:3120 M:1338753024    INFO: ffmpeg[C30]:       title           : 02:02:05.568
  624. 11:04:11 T:3120 M:1338753024    INFO: ffmpeg[C30]:     Chapter #0.28: start 7533.859000, end 7801.835000
  625. 11:04:11 T:3120 M:1338753024    INFO: ffmpeg[C30]:     Metadata:
  626. 11:04:11 T:3120 M:1339215872    INFO: ffmpeg[C30]:       title           : 02:05:33.859
  627. 11:04:11 T:3120 M:1338769408    INFO: ffmpeg[C30]:     Chapter #0.29: start 7801.835000, end 8167.284000
  628. 11:04:11 T:3120 M:1338769408    INFO: ffmpeg[C30]:     Metadata:
  629. 11:04:11 T:3120 M:1338769408    INFO: ffmpeg[C30]:       title           : 02:10:01.835
  630. 11:04:11 T:3120 M:1338769408    INFO: ffmpeg[C30]:     Chapter #0.30: start 8167.284000, end 8390.841000
  631. 11:04:11 T:3120 M:1339072512    INFO: ffmpeg[C30]:     Metadata:
  632. 11:04:11 T:3120 M:1338920960    INFO: ffmpeg[C30]:       title           : 02:16:07.284
  633. 11:04:11 T:3120 M:1338773504    INFO: ffmpeg[C30]:     Chapter #0.31: start 8390.841000, end 8750.325000
  634. 11:04:11 T:3120 M:1338773504    INFO: ffmpeg[C30]:     Metadata:
  635. 11:04:11 T:3120 M:1338773504    INFO: ffmpeg[C30]:       title           : 02:19:50.841
  636. 11:04:11 T:3120 M:1338810368    INFO: ffmpeg[C30]:     Chapter #0.32: start 8750.325000, end 9074.065000
  637. 11:04:11 T:3120 M:1339146240    INFO: ffmpeg[C30]:     Metadata:
  638. 11:04:11 T:3120 M:1338785792    INFO: ffmpeg[C30]:       title           : 02:25:50.325
  639. 11:04:11 T:3120 M:1338785792    INFO: ffmpeg[C30]:     Chapter #0.33: start 9074.065000, end 9305.296000
  640. 11:04:11 T:3120 M:1338785792    INFO: ffmpeg[C30]:     Metadata:
  641. 11:04:11 T:3120 M:1338785792    INFO: ffmpeg[C30]:       title           : 02:31:14.065
  642. 11:04:11 T:3120 M:1339211776    INFO: ffmpeg[C30]:     Chapter #0.34: start 9305.296000, end 9701.686000
  643. 11:04:11 T:3120 M:1338798080    INFO: ffmpeg[C30]:     Metadata:
  644. 11:04:11 T:3120 M:1338798080    INFO: ffmpeg[C30]:       title           : 02:35:05.296
  645. 11:04:11 T:3120 M:1338822656    INFO: ffmpeg[C30]:     Stream #0.0(eng): Video: h264, yuv420p, 1920x1080 [PAR 1:1 DAR 16:9], 23.98 fps, 24 tbr, 1k tbn, 47.95 tbc
  646. 11:04:11 T:3120 M:1339179008    INFO: ffmpeg[C30]:     Metadata:
  647. 11:04:11 T:3120 M:1338834944    INFO: ffmpeg[C30]:       title           : x264 - crf encode @ 55% of the original bitrate
  648. 11:04:11 T:3120 M:1338859520    INFO: ffmpeg[C30]:     Stream #0.1(eng): Audio: dca, 48000 Hz, 6 channels, s16
  649. 11:04:11 T:3120 M:1338859520    INFO: ffmpeg[C30]:     Metadata:
  650. 11:04:11 T:3120 M:1338859520    INFO: ffmpeg[C30]:       title           : DTS - 1536 kbit/sec
  651. 11:04:11 T:3120 M:1338904576    INFO: ffmpeg[C30]:     Stream #0.2(eng): Subtitle: [0][0][0][0] / 0x0000
  652. 11:04:11 T:3120 M:1338904576    INFO: ffmpeg[C30]:     Metadata:
  653. 11:04:11 T:3120 M:1338904576    INFO: ffmpeg[C30]:       title           : non-English parts
  654. 11:04:11 T:3120 M:1338957824    INFO: ffmpeg[C30]:     Stream #0.3(eng): Subtitle: [0][0][0][0] / 0x0000
  655. 11:04:11 T:3120 M:1339015168    INFO: ffmpeg[C30]:     Stream #0.4(dut): Subtitle: [0][0][0][0] / 0x0000
  656. 11:04:11 T:3120 M:1339097088    INFO: ffmpeg[C30]:     Stream #0.5(bul): Subtitle: [0][0][0][0] / 0x0000
  657. 11:04:11 T:3120 M:1339183104    INFO: ffmpeg[C30]:     Stream #0.6: Subtitle: [0][0][0][0] / 0x0000
  658. 11:04:11 T:3120 M:1339174912    INFO: ffmpeg[C30]:     Metadata:
  659. 11:04:11 T:3120 M:1339187200    INFO: ffmpeg[C30]:       title           : Croatian/Servian
  660. 11:04:11 T:3120 M:1339224064    INFO: ffmpeg[C30]:     Stream #0.7(fin): Subtitle: [0][0][0][0] / 0x0000
  661. 11:04:11 T:3120 M:1339224064    INFO: ffmpeg[C30]:     Stream #0.8(fre): Subtitle: [0][0][0][0] / 0x0000
  662. 11:04:11 T:3120 M:1339224064    INFO: ffmpeg[C30]:     Stream #0.9(gre): Subtitle: [0][0][0][0] / 0x0000
  663. 11:04:11 T:3120 M:1339224064    INFO: ffmpeg[C30]:     Stream #0.10(por): Subtitle: [0][0][0][0] / 0x0000
  664. 11:04:11 T:3120 M:1339224064    INFO: ffmpeg[C30]:     Stream #0.11(rum): Subtitle: [0][0][0][0] / 0x0000
  665. 11:04:11 T:3120 M:1339224064    INFO: ffmpeg[C30]:     Stream #0.12(swe): Subtitle: [0][0][0][0] / 0x0000
  666. 11:04:11 T:3120 M:1339224064    INFO: ffmpeg[C30]:     Stream #0.13(ara): Subtitle: [0][0][0][0] / 0x0000
  667. 11:04:11 T:6560 M:1341734912   DEBUG: Thread 6560 terminating
  668. 11:04:11 T:3656 M:1343815680   DEBUG: SDLKeyboard: scancode: 14, sym: 8, unicode: 8, modifier: 0
  669. 11:04:11 T:3656 M:1343815680   DEBUG: CApplication::OnKey: 61448 pressed, action is ParentDir
  670. 11:04:11 T:3656 M:1343815680   DEBUG: CGUIWindowManager::PreviousWindow: Deactivate
  671. 11:04:11 T:3656 M:1343815680   DEBUG: ------ Window Deinit (MyVideoNav.xml) ------
  672. 11:04:12 T:3656 M:1345302528   DEBUG: CGUIWindowManager::PreviousWindow: Activate new
  673. 11:04:12 T:3656 M:1345302528   DEBUG: ------ Window Init (Home.xml) ------
  674. 11:04:12 T:3656 M:1345302528    INFO: Loading skin file: Home.xml
  675. 11:04:12 T:3656 M:1327341568   DEBUG: CApplication::ExecuteXBMCAction : Translating SetFocus(9000)
  676. 11:04:12 T:3656 M:1327341568   DEBUG: CApplication::ExecuteXBMCAction : To SetFocus(9000)
  677. 11:04:12 T:3656 M:1351790592   DEBUG: Joystick 0 button 2 Down
  678. 11:04:13 T:3656 M:1351790592   DEBUG: SDLKeyboard: scancode: 14, sym: 8, unicode: 8, modifier: 0
  679. 11:04:13 T:3656 M:1351790592   DEBUG: CApplication::OnKey: 61448 pressed, action is ParentDir
  680. 11:04:13 T:3656 M:1351790592   DEBUG: Joystick 0 button 2 Up
  681. 11:04:13 T:3656 M:1350905856   DEBUG: Joystick 0 button 5 Down
  682. 11:04:14 T:3656 M:1350754304   DEBUG: SDLKeyboard: scancode: 31, sym: 115, unicode: 115, modifier: 0
  683. 11:04:14 T:3656 M:1350754304   DEBUG: CApplication::OnKey: 61523 pressed, action is ActivateWindow(shutdownmenu)
  684. 11:04:14 T:3656 M:1350754304   DEBUG: Activating window ID: 10111
  685. 11:04:14 T:3656 M:1350754304   DEBUG: Checking if window ID 10111 is locked.
  686. 11:04:14 T:3656 M:1350754304   DEBUG: ------ Window Init (DialogButtonMenu.xml) ------
  687. 11:04:14 T:3656 M:1350750208    INFO: Loading skin file: DialogButtonMenu.xml
  688. 11:04:14 T:3656 M:1349505024   DEBUG: Joystick 0 button 5 Up
  689. 11:04:15 T:3656 M:1349341184   DEBUG: SDLKeyboard: scancode: 75, sym: 276, unicode: 0, modifier: 0
  690. 11:04:15 T:3656 M:1349341184   DEBUG: CApplication::OnKey: 61477 pressed, action is Left
  691. 11:04:15 T:3656 M:1349341184   DEBUG: Joystick 0 hat 1 Down
  692. 11:04:15 T:3656 M:1349341184   DEBUG: Joystick 0 hat 4294967295 Centered
  693. 11:04:16 T:3656 M:1349341184   DEBUG: SDLKeyboard: scancode: 28, sym: 13, unicode: 13, modifier: 0
  694. 11:04:16 T:3656 M:1349341184   DEBUG: CApplication::OnKey: 61453 pressed, action is Select
  695. 11:04:16 T:3656 M:1349341184   DEBUG: CApplication::ExecuteXBMCAction : Translating XBMC.Quit()
  696. 11:04:16 T:3656 M:1349341184   DEBUG: CApplication::ExecuteXBMCAction : To XBMC.Quit()
  697. 11:04:16 T:3656 M:1349341184   DEBUG: Joystick 0 button 1 Down
  698. 11:04:16 T:4388 M:1349341184   DEBUG: Thread 4388 terminating (autodelete)
  699. 11:04:16 T:6484 M:1349341184   DEBUG: Thread 6484 terminating (autodelete)
  700. 11:04:16 T:3120 M:1349341184   DEBUG: Thread 3120 terminating (autodelete)
  701. 11:04:16 T:5716 M:1349398528   DEBUG: Thread 5716 terminating
  702. 11:04:16 T:3656 M:1349660672   DEBUG: CAnnouncementManager - Announcement: ApplicationStop from xbmc
  703. 11:04:16 T:3656 M:1349754880  NOTICE: Storing total System Uptime
  704. 11:04:16 T:3656 M:1349754880  NOTICE: Saving settings
  705. 11:04:16 T:3656 M:1349664768  NOTICE: stop all
  706. 11:04:16 T:3656 M:1349664768   DEBUG: CNetwork::NetworkMessage - Signaling network services to stop
  707. 11:04:16 T:3656 M:1349664768  NOTICE: ES: Stopping event server
  708. 11:04:16 T:3656 M:1349664768   DEBUG: CNetwork::NetworkMessage - Waiting for network services to stop
  709. 11:04:16 T:3656 M:1349664768  NOTICE: Webserver: Stopping...
  710. 11:04:16 T:3656 M:1349718016  NOTICE: WebServer: Stopped the webserver
  711. 11:04:16 T:3656 M:1349718016  NOTICE: Webserver: Stopped...
  712. 11:04:16 T:6376 M:1351524352  NOTICE: ES: UDP Event server stopped
  713. 11:04:16 T:2196 M:1351524352   DEBUG: Thread 2196 terminating
  714. 11:04:16 T:6376 M:1351520256   DEBUG: Thread 6376 terminating
  715. 11:04:16 T:3656 M:1351634944  NOTICE: stop sap announcement listener
  716. 11:04:16 T:3656 M:1351630848  NOTICE: clean cached files!
  717. 11:04:16 T:3656 M:1351622656  NOTICE: unload skin
  718. 11:04:16 T:3656 M:1351622656   DEBUG: ------ Window Deinit (Home.xml) ------
  719. 11:04:16 T:3656 M:1351622656   DEBUG: ------ Window Deinit (Pointer.xml) ------
  720. 11:04:16 T:3656 M:1351622656   DEBUG: ------ Window Deinit (DialogMuteBug.xml) ------
  721. 11:04:16 T:3656 M:1355374592  NOTICE: stop python
  722. 11:04:17 T:3656 M:1358393344  NOTICE: stopped
  723. 11:04:17 T:3656 M:1358393344  NOTICE: destroy
  724. 11:04:17 T:3656 M:1358389248    INFO: ADDON: cpluff: 'An unreleased information object was encountered at address 03D90010 with reference count 1 when destroying the associated plug-in context. Not releasing the object.'
  725. 11:04:17 T:3656 M:1358389248    INFO: ADDON: cpluff: 'An unreleased information object was encountered at address 03D8F758 with reference count 1 when destroying the associated plug-in context. Not releasing the object.'
  726. 11:04:17 T:3656 M:1358389248    INFO: ADDON: cpluff: 'An unreleased information object was encountered at address 03D8F5A8 with reference count 1 when destroying the associated plug-in context. Not releasing the object.'
  727. 11:04:17 T:3656 M:1358348288  NOTICE: unload sections
  728. 11:04:17 T:3656 M:1358348288   DEBUG: SECTION:UnloadAll(DLL: special://xbmcbin/system/cpluff.dll)
  729. 11:04:17 T:3656 M:1358348288   DEBUG: Win32DllLoader::Unload cpluff.dll
  730. 11:04:17 T:3656 M:1358348288   DEBUG: FreeLibrary(libexpat.dll) -> 02F28968
  731. 11:04:17 T:3656 M:1358348288   DEBUG: Win32DllLoader::Unload libexpat.dll
  732. 11:04:17 T:3656 M:1358516224   DEBUG: SECTION:UnloadAll(DLL: special://xbmcbin/system/ImageLib.dll)
  733. 11:04:17 T:3656 M:1358516224   DEBUG: Win32DllLoader::Unload ImageLib.dll
  734. 11:04:17 T:3656 M:1359093760   DEBUG: SECTION:UnloadAll(DLL: special://xbmcbin/system/libcurl.dll)
  735. 11:04:17 T:3656 M:1359093760   DEBUG: Win32DllLoader::Unload libcurl.dll
  736. 11:04:17 T:3656 M:1359093760   DEBUG: FreeLibrary(libidn-11.dll) -> 07576160
  737. 11:04:17 T:3656 M:1359093760   DEBUG: Win32DllLoader::Unload libidn-11.dll
  738. 11:04:17 T:3656 M:1359093760   DEBUG: FreeLibrary(libeay32.dll) -> 07576520
  739. 11:04:17 T:3656 M:1359093760   DEBUG: FreeLibrary(libssl32.dll) -> 0756DAB0
  740. 11:04:17 T:3656 M:1359093760   DEBUG: Win32DllLoader::Unload libssl32.dll
  741. 11:04:17 T:3656 M:1359093760   DEBUG: FreeLibrary(libeay32.dll) -> 07576520
  742. 11:04:17 T:3656 M:1359093760   DEBUG: Win32DllLoader::Unload libeay32.dll
  743. 11:04:17 T:3656 M:1359953920   DEBUG: SECTION:UnloadAll(DLL: special://xbmcbin/system/players/dvdplayer/avutil-50.dll)
  744. 11:04:17 T:3656 M:1359953920   DEBUG: SECTION:UnloadAll(DLL: special://xbmcbin/system/players/dvdplayer/avcodec-52.dll)
  745. 11:04:17 T:3656 M:1359953920   DEBUG: SECTION:UnloadAll(DLL: special://xbmcbin/system/players/dvdplayer/avformat-52.dll)
  746. 11:04:17 T:3656 M:1359953920   DEBUG: Win32DllLoader::Unload avformat-52.dll
  747. 11:04:17 T:3656 M:1359953920   DEBUG: FreeLibrary(avcodec-52.dll) -> 0764FAF0
  748. 11:04:17 T:3656 M:1359953920   DEBUG: Win32DllLoader::Unload avcodec-52.dll
  749. 11:04:17 T:3656 M:1359953920   DEBUG: FreeLibrary(libfaad.dll) -> 0764FC30
  750. 11:04:17 T:3656 M:1359953920   DEBUG: Win32DllLoader::Unload libfaad.dll
  751. 11:04:17 T:3656 M:1359953920   DEBUG: FreeLibrary(avutil-50.dll) -> 0764FB90
  752. 11:04:17 T:3656 M:1359953920   DEBUG: Previous line repeats 1 times.
  753. 11:04:17 T:3656 M:1359953920   DEBUG: Win32DllLoader::Unload avutil-50.dll